Time,TemperatureF,DewpointF,PressureIn,WindDirection,WindDirectionDegrees,WindSpeedMPH,WindSpeedGustMPH,Humidity,HourlyPrecipIn,Conditions,Clouds,dailyrainin,SoftwareType,DateUTC
2013-11-05 00:00:00,80.4,71.8,29.86,South,180,0.0,0.0,75,0.00,,---,0.00,VWS V13.01,2013-11-05 04:00:00,
2013-11-05 00:02:00,80.2,71.6,29.86,SSE,158,0.0,0.0,75,0.00,,---,0.00,VWS V13.01,2013-11-05 04:02:00,
2013-11-05 00:03:00,80.2,71.6,29.86,South,180,0.0,0.0,75,0.00,,---,0.00,VWS V13.01,2013-11-05 04:03:00,
2013-11-05 00:05:00,80.4,71.8,29.85,South,180,0.0,0.0,75,0.00,,---,0.00,VWS V13.01,2013-11-05 04:05:00,
2013-11-05 00:07:00,80.4,71.8,29.85,South,180,0.0,0.0,75,0.00,,---,0.00,VWS V13.01,2013-11-05 04:07:00,
2013-11-05 00:08:00,80.2,71.6,29.85,SSW,202,0.0,0.0,75,0.00,,---,0.00,VWS V13.01,2013-11-05 04:08:00,
2013-11-05 00:10:00,80.2,71.6,29.85,SW,225,0.0,0.0,75,0.00,,---,0.00,VWS V13.01,2013-11-05 04:10:00,
2013-11-05 00:12:00,80.2,71.6,29.85,South,180,0.0,0.0,75,0.00,,---,0.00,VWS V13.01,2013-11-05 04:12:00,
2013-11-05 00:13:00,80.2,71.6,29.85,South,180,0.0,0.0,75,0.00,,---,0.00,VWS V13.01,2013-11-05 04:13:00,
2013-11-05 00:15:00,80.2,71.6,29.85,South,180,0.0,0.0,75,0.00,,---,0.00,VWS V13.01,2013-11-05 04:15:00,
2013-11-05 00:16:00,80.2,71.6,29.85,South,180,0.0,0.0,75,0.00,,---,0.00,VWS V13.01,2013-11-05 04:16:00,
2013-11-05 00:17:00,80.2,71.6,29.85,SW,225,2.6,2.6,75,0.00,,---,0.00,VWS V13.01,2013-11-05 04:17:00,
2013-11-05 00:18:00,80.2,71.6,29.85,South,180,2.2,2.2,75,0.00,,---,0.00,VWS V13.01,2013-11-05 04:18:00,
2013-11-05 00:20:00,80.2,71.6,29.85,South,180,0.8,0.8,75,0.00,,---,0.00,VWS V13.01,2013-11-05 04:20:00,
2013-11-05 00:21:00,80.2,71.6,29.85,South,180,0.8,0.8,75,0.00,,---,0.00,VWS V13.01,2013-11-05 04:21:00,
2013-11-05 00:22:00,80.2,71.6,29.85,SSW,202,0.0,0.0,75,0.00,,---,0.00,VWS V13.01,2013-11-05 04:22:00,
2013-11-05 00:23:00,80.0,71.4,29.85,SSW,202,0.0,0.0,75,0.00,,---,0.00,VWS V13.01,2013-11-05 04:23:00,
2013-11-05 00:24:00,80.0,71.4,29.85,SSW,202,0.0,0.0,75,0.00,,---,0.00,VWS V13.01,2013-11-05 04:24:00,
2013-11-05 00:25:00,80.0,71.4,29.85,South,180,0.0,0.0,75,0.00,,---,0.00,VWS V13.01,2013-11-05 04:25:00,
2013-11-05 00:26:00,80.0,71.4,29.85,South,180,0.0,0.0,75,0.00,,---,0.00,VWS V13.01,2013-11-05 04:26:00,
2013-11-05 00:27:00,79.8,71.2,29.85,SW,225,0.0,0.0,75,0.00,,---,0.00,VWS V13.01,2013-11-05 04:27:00,
2013-11-05 00:28:00,79.8,71.2,29.85,SSE,158,0.0,0.0,75,0.00,,---,0.00,VWS V13.01,2013-11-05 04:28:00,
2013-11-05 00:29:00,79.8,71.2,29.85,SSE,158,0.0,0.0,75,0.00,,---,0.00,VWS V13.01,2013-11-05 04:29:00,
2013-11-05 00:31:00,79.8,71.2,29.85,SSE,158,0.0,0.0,75,0.00,,---,0.00,VWS V13.01,2013-11-05 04:31:00,
2013-11-05 00:32:00,79.8,71.6,29.85,SSE,158,0.0,0.0,76,0.00,,---,0.00,VWS V13.01,2013-11-05 04:32:00,
2013-11-05 00:33:00,79.8,71.6,29.85,South,180,0.0,0.0,76,0.00,,---,0.00,VWS V13.01,2013-11-05 04:33:00,
2013-11-05 00:34:00,79.8,71.6,29.85,South,180,0.0,0.0,76,0.00,,---,0.00,VWS V13.01,2013-11-05 04:34:00,
2013-11-05 00:35:00,79.8,71.6,29.85,South,180,0.0,0.0,76,0.00,,---,0.00,VWS V13.01,2013-11-05 04:35:00,
2013-11-05 00:36:00,79.8,71.6,29.85,South,180,0.0,0.0,76,0.00,,---,0.00,VWS V13.01,2013-11-05 04:36:00,
2013-11-05 00:37:00,79.8,71.6,29.85,South,180,0.0,0.0,76,0.00,,---,0.00,VWS V13.01,2013-11-05 04:37:00,
2013-11-05 00:38:00,79.8,71.6,29.85,SE,135,2.0,2.0,76,0.00,,---,0.00,VWS V13.01,2013-11-05 04:38:00,
2013-11-05 00:39:00,79.8,71.6,29.85,SE,135,2.0,2.0,76,0.00,,---,0.00,VWS V13.01,2013-11-05 04:39:00,
2013-11-05 00:41:00,79.8,71.6,29.85,SSE,158,0.0,0.0,76,0.00,,---,0.00,VWS V13.01,2013-11-05 04:41:00,
2013-11-05 00:42:00,79.8,71.6,29.84,SSE,158,0.0,0.0,76,0.00,,---,0.00,VWS V13.01,2013-11-05 04:42:00,
2013-11-05 00:44:00,79.8,71.6,29.84,SSE,158,0.0,0.0,76,0.00,,---,0.00,VWS V13.01,2013-11-05 04:44:00,
2013-11-05 00:46:00,79.8,71.6,29.84,SE,135,0.0,0.0,76,0.00,,---,0.00,VWS V13.01,2013-11-05 04:46:00,
2013-11-05 00:48:00,79.8,71.6,29.84,SSE,158,0.0,0.0,76,0.00,,---,0.00,VWS V13.01,2013-11-05 04:48:00,
2013-11-05 00:49:00,79.8,71.6,29.84,SSE,158,0.0,0.0,76,0.00,,---,0.00,VWS V13.01,2013-11-05 04:49:00,
2013-11-05 00:51:00,79.8,71.6,29.84,SSE,158,0.0,0.0,76,0.00,,---,0.00,VWS V13.01,2013-11-05 04:51:00,
2013-11-05 00:52:00,79.8,71.6,29.84,SSE,158,0.0,0.0,76,0.00,,---,0.00,VWS V13.01,2013-11-05 04:52:00,
2013-11-05 00:53:00,79.8,71.6,29.84,SSE,158,0.0,0.0,76,0.00,,---,0.00,VWS V13.01,2013-11-05 04:53:00,
2013-11-05 00:54:00,79.8,71.6,29.84,SSE,158,0.0,0.0,76,0.00,,---,0.00,VWS V13.01,2013-11-05 04:54:00,
2013-11-05 00:56:00,79.8,71.6,29.84,SSE,158,0.0,0.0,76,0.00,,---,0.00,VWS V13.01,2013-11-05 04:56:00,
2013-11-05 00:57:00,79.7,71.5,29.84,South,180,0.0,0.0,76,0.00,,---,0.00,VWS V13.01,2013-11-05 04:57:00,
2013-11-05 00:58:00,79.7,71.5,29.84,South,180,0.0,0.0,76,0.00,,---,0.00,VWS V13.01,2013-11-05 04:58:00,
2013-11-05 00:59:00,79.7,71.5,29.84,South,180,0.0,0.0,76,0.00,,---,0.00,VWS V13.01,2013-11-05 04:59:00,
2013-11-05 01:01:00,79.7,71.5,29.84,SSE,158,0.0,0.0,76,0.00,,---,0.00,VWS V13.01,2013-11-05 05:01:00,
2013-11-05 01:06:00,79.7,71.5,29.84,South,180,0.0,0.0,76,0.00,,---,0.00,VWS V13.01,2013-11-05 05:06:00,
2013-11-05 01:11:00,79.5,71.3,29.84,South,180,0.0,0.0,76,0.00,,---,0.00,VWS V13.01,2013-11-05 05:11:00,
2013-11-05 01:16:00,79.5,71.7,29.83,SSW,202,0.0,0.0,77,0.00,,---,0.00,VWS V13.01,2013-11-05 05:16:00,
2013-11-05 01:21:00,79.5,71.7,29.83,SW,225,0.0,0.0,77,0.00,,---,0.00,VWS V13.01,2013-11-05 05:21:00,
2013-11-05 01:22:00,79.5,71.7,29.83,SW,225,0.0,0.0,77,0.00,,---,0.00,VWS V13.01,2013-11-05 05:22:00,
2013-11-05 01:26:00,79.5,71.7,29.83,South,180,0.0,0.0,77,0.00,,---,0.00,VWS V13.01,2013-11-05 05:26:00,
2013-11-05 01:27:00,79.5,71.7,29.83,South,180,0.0,0.0,77,0.00,,---,0.00,VWS V13.01,2013-11-05 05:27:00,
2013-11-05 01:31:00,79.5,71.7,29.83,SSW,202,0.0,0.0,77,0.00,,---,0.00,VWS V13.01,2013-11-05 05:31:00,
2013-11-05 01:32:00,79.5,71.7,29.83,SW,225,0.0,0.0,77,0.00,,---,0.00,VWS V13.01,2013-11-05 05:32:00,
2013-11-05 01:36:00,79.3,71.5,29.83,SSE,158,0.0,0.0,77,0.00,,---,0.00,VWS V13.01,2013-11-05 05:36:00,
2013-11-05 01:37:00,79.3,71.5,29.83,SSE,158,0.0,0.0,77,0.00,,---,0.00,VWS V13.01,2013-11-05 05:37:00,
2013-11-05 01:41:00,79.3,71.5,29.82,SW,225,0.0,0.0,77,0.00,,---,0.00,VWS V13.01,2013-11-05 05:41:00,
2013-11-05 01:42:00,79.3,71.5,29.82,SW,225,0.0,0.0,77,0.00,,---,0.00,VWS V13.01,2013-11-05 05:42:00,
2013-11-05 01:46:00,79.3,71.5,29.82,South,180,0.0,0.0,77,0.00,,---,0.00,VWS V13.01,2013-11-05 05:46:00,
2013-11-05 01:47:00,79.3,71.5,29.82,South,180,0.0,0.0,77,0.00,,---,0.00,VWS V13.01,2013-11-05 05:47:00,
2013-11-05 01:51:00,79.3,71.8,29.82,South,180,2.6,2.6,78,0.00,,---,0.00,VWS V13.01,2013-11-05 05:51:00,
2013-11-05 01:52:00,79.3,71.8,29.82,South,180,2.6,2.6,78,0.00,,---,0.00,VWS V13.01,2013-11-05 05:52:00,
2013-11-05 01:56:00,79.3,71.8,29.82,SSE,158,0.0,0.0,78,0.00,,---,0.00,VWS V13.01,2013-11-05 05:56:00,
2013-11-05 01:57:00,79.3,71.8,29.82,SSE,158,0.0,0.0,78,0.00,,---,0.00,VWS V13.01,2013-11-05 05:57:00,
2013-11-05 02:01:00,79.3,71.8,29.82,SE,135,2.9,2.9,78,0.00,,---,0.00,VWS V13.01,2013-11-05 06:01:00,
2013-11-05 02:02:00,79.3,71.8,29.82,SE,135,2.9,2.9,78,0.00,,---,0.00,VWS V13.01,2013-11-05 06:02:00,
2013-11-05 02:06:00,79.3,71.8,29.82,SSE,158,2.0,2.0,78,0.00,,---,0.00,VWS V13.01,2013-11-05 06:06:00,
2013-11-05 02:07:00,79.3,71.8,29.82,SSE,158,2.0,2.0,78,0.00,,---,0.00,VWS V13.01,2013-11-05 06:07:00,
2013-11-05 02:08:00,79.3,71.8,29.82,South,180,0.0,0.0,78,0.00,,---,0.00,VWS V13.01,2013-11-05 06:08:00,
2013-11-05 02:11:00,79.3,71.8,29.82,South,180,1.1,1.1,78,0.00,,---,0.00,VWS V13.01,2013-11-05 06:11:00,
2013-11-05 02:12:00,79.3,71.8,29.82,South,180,1.1,1.1,78,0.00,,---,0.00,VWS V13.01,2013-11-05 06:12:00,
2013-11-05 02:13:00,79.3,71.8,29.82,SSE,158,0.0,0.0,78,0.00,,---,0.00,VWS V13.01,2013-11-05 06:13:00,
2013-11-05 02:16:00,79.3,71.8,29.82,SSE,158,1.3,1.3,78,0.00,,---,0.00,VWS V13.01,2013-11-05 06:16:00,
2013-11-05 02:17:00,79.3,71.8,29.82,SSE,158,1.3,1.3,78,0.00,,---,0.00,VWS V13.01,2013-11-05 06:17:00,
2013-11-05 02:18:00,79.3,71.8,29.82,SSW,202,0.0,0.0,78,0.00,,---,0.00,VWS V13.01,2013-11-05 06:18:00,
2013-11-05 02:21:00,79.3,71.8,29.81,SSE,158,0.0,0.0,78,0.00,,---,0.00,VWS V13.01,2013-11-05 06:21:00,
2013-11-05 02:22:00,79.3,71.8,29.81,SSE,158,0.0,0.0,78,0.00,,---,0.00,VWS V13.01,2013-11-05 06:22:00,
2013-11-05 02:23:00,79.3,71.8,29.81,SSE,158,1.5,1.5,78,0.00,,---,0.00,VWS V13.01,2013-11-05 06:23:00,
2013-11-05 02:26:00,79.3,71.8,29.81,SE,135,0.0,0.0,78,0.00,,---,0.00,VWS V13.01,2013-11-05 06:26:00,
2013-11-05 02:27:00,79.3,71.8,29.81,SSE,158,1.1,1.1,78,0.00,,---,0.00,VWS V13.01,2013-11-05 06:27:00,
2013-11-05 02:28:00,79.3,71.8,29.81,SSE,158,1.1,1.1,78,0.00,,---,0.00,VWS V13.01,2013-11-05 06:28:00,
2013-11-05 02:31:00,79.3,71.8,29.81,ESE,112,2.4,2.4,78,0.00,,---,0.00,VWS V13.01,2013-11-05 06:31:00,
2013-11-05 02:32:00,79.3,71.8,29.81,ESE,112,2.4,2.4,78,0.00,,---,0.00,VWS V13.01,2013-11-05 06:32:00,
2013-11-05 02:33:00,79.3,71.8,29.81,SSE,158,0.0,1.5,78,0.00,,---,0.00,VWS V13.01,2013-11-05 06:33:00,
2013-11-05 02:36:00,79.3,71.8,29.81,SSE,158,2.2,2.2,78,0.00,,---,0.00,VWS V13.01,2013-11-05 06:36:00,
2013-11-05 02:37:00,79.3,71.8,29.81,SSE,158,2.2,2.2,78,0.00,,---,0.00,VWS V13.01,2013-11-05 06:37:00,
2013-11-05 02:38:00,79.3,71.8,29.81,SSE,158,0.0,0.0,78,0.00,,---,0.00,VWS V13.01,2013-11-05 06:38:00,
2013-11-05 02:41:00,79.3,71.8,29.81,SSE,158,0.0,0.0,78,0.00,,---,0.00,VWS V13.01,2013-11-05 06:41:00,
2013-11-05 02:42:00,79.3,71.8,29.81,SSE,158,0.0,0.0,78,0.00,,---,0.00,VWS V13.01,2013-11-05 06:42:00,
2013-11-05 02:43:00,79.3,71.8,29.81,South,180,2.0,2.0,78,0.00,,---,0.00,VWS V13.01,2013-11-05 06:43:00,
2013-11-05 02:44:00,79.3,71.8,29.81,SE,135,0.0,0.0,78,0.00,,---,0.00,VWS V13.01,2013-11-05 06:44:00,
2013-11-05 02:46:00,79.3,71.8,29.81,South,180,0.6,0.6,78,0.00,,---,0.00,VWS V13.01,2013-11-05 06:46:00,
2013-11-05 02:47:00,79.3,71.8,29.81,South,180,0.6,0.6,78,0.00,,---,0.00,VWS V13.01,2013-11-05 06:47:00,
2013-11-05 02:48:00,79.3,71.8,29.81,SE,135,2.4,2.4,78,0.00,,---,0.00,VWS V13.01,2013-11-05 06:48:00,
2013-11-05 02:49:00,79.3,71.8,29.81,SE,135,0.6,0.6,78,0.00,,---,0.00,VWS V13.01,2013-11-05 06:49:00,
2013-11-05 02:51:00,79.3,71.8,29.81,SE,135,0.0,0.0,78,0.00,,---,0.00,VWS V13.01,2013-11-05 06:51:00,
2013-11-05 02:52:00,79.3,71.8,29.81,SE,135,0.0,0.0,78,0.00,,---,0.00,VWS V13.01,2013-11-05 06:52:00,
2013-11-05 02:53:00,79.3,71.8,29.81,South,180,1.5,1.5,78,0.00,,---,0.00,VWS V13.01,2013-11-05 06:53:00,
2013-11-05 02:54:00,79.1,71.7,29.81,SSE,158,0.0,0.0,78,0.00,,---,0.00,VWS V13.01,2013-11-05 06:54:00,
2013-11-05 02:56:00,79.1,71.7,29.81,South,180,0.0,0.0,78,0.00,,---,0.00,VWS V13.01,2013-11-05 06:56:00,
2013-11-05 02:57:00,79.1,71.7,29.81,South,180,0.0,0.0,78,0.00,,---,0.00,VWS V13.01,2013-11-05 06:57:00,
2013-11-05 02:58:00,79.1,71.7,29.81,ESE,112,1.7,1.7,78,0.00,,---,0.00,VWS V13.01,2013-11-05 06:58:00,
2013-11-05 02:59:00,79.1,71.7,29.81,SSE,158,0.0,0.0,78,0.00,,---,0.00,VWS V13.01,2013-11-05 06:59:00,
2013-11-05 03:01:00,79.1,71.7,29.81,South,180,0.6,0.6,78,0.00,,---,0.00,VWS V13.01,2013-11-05 07:01:00,
2013-11-05 03:02:00,79.1,71.7,29.81,South,180,0.6,0.6,78,0.00,,---,0.00,VWS V13.01,2013-11-05 07:02:00,
2013-11-05 03:03:00,79.1,71.7,29.81,South,180,0.0,0.0,78,0.00,,---,0.00,VWS V13.01,2013-11-05 07:03:00,
2013-11-05 03:04:00,79.1,71.7,29.81,South,180,2.4,2.4,78,0.00,,---,0.00,VWS V13.01,2013-11-05 07:04:00,
2013-11-05 03:06:00,79.1,71.7,29.81,South,180,0.0,0.0,78,0.00,,---,0.00,VWS V13.01,2013-11-05 07:06:00,
2013-11-05 03:07:00,79.1,71.7,29.81,South,180,0.0,0.0,78,0.00,,---,0.00,VWS V13.01,2013-11-05 07:07:00,
2013-11-05 03:08:00,79.1,71.7,29.81,South,180,0.0,0.0,78,0.00,,---,0.00,VWS V13.01,2013-11-05 07:08:00,
2013-11-05 03:09:00,79.1,71.7,29.81,South,180,0.0,0.0,78,0.00,,---,0.00,VWS V13.01,2013-11-05 07:09:00,
2013-11-05 03:10:00,79.1,71.7,29.81,South,180,2.4,2.4,78,0.00,,---,0.00,VWS V13.01,2013-11-05 07:10:00,
2013-11-05 03:11:00,79.1,71.7,29.80,SSE,158,0.0,0.0,78,0.00,,---,0.00,VWS V13.01,2013-11-05 07:11:00,
2013-11-05 03:12:00,79.1,71.7,29.80,SSE,158,0.0,0.0,78,0.00,,---,0.00,VWS V13.01,2013-11-05 07:12:00,
2013-11-05 03:13:00,79.1,71.7,29.80,South,180,0.0,0.0,78,0.00,,---,0.00,VWS V13.01,2013-11-05 07:13:00,
2013-11-05 03:14:00,78.9,71.5,29.80,South,180,0.0,0.0,78,0.00,,---,0.00,VWS V13.01,2013-11-05 07:14:00,
2013-11-05 03:15:00,78.9,71.5,29.80,South,180,0.0,0.0,78,0.00,,---,0.00,VWS V13.01,2013-11-05 07:15:00,
2013-11-05 03:17:00,79.1,71.7,29.80,South,180,0.0,0.0,78,0.00,,---,0.00,VWS V13.01,2013-11-05 07:17:00,
2013-11-05 03:18:00,78.9,71.5,29.80,SSE,158,0.0,0.0,78,0.00,,---,0.00,VWS V13.01,2013-11-05 07:18:00,
2013-11-05 03:19:00,79.1,71.7,29.81,South,180,1.5,1.5,78,0.00,,---,0.00,VWS V13.01,2013-11-05 07:19:00,
2013-11-05 03:20:00,79.1,71.7,29.81,South,180,1.5,1.5,78,0.00,,---,0.00,VWS V13.01,2013-11-05 07:20:00,
2013-11-05 03:22:00,79.1,71.7,29.80,SSW,202,1.1,1.1,78,0.00,,---,0.00,VWS V13.01,2013-11-05 07:22:00,
2013-11-05 03:23:00,78.9,71.5,29.80,South,180,2.4,2.4,78,0.00,,---,0.00,VWS V13.01,2013-11-05 07:23:00,
2013-11-05 03:24:00,78.9,71.5,29.80,South,180,0.6,0.6,78,0.00,,---,0.00,VWS V13.01,2013-11-05 07:24:00,
2013-11-05 03:25:00,78.9,71.5,29.80,South,180,0.6,0.6,78,0.00,,---,0.00,VWS V13.01,2013-11-05 07:25:00,
2013-11-05 03:27:00,78.9,71.5,29.80,South,180,1.5,1.5,78,0.00,,---,0.00,VWS V13.01,2013-11-05 07:27:00,
2013-11-05 03:28:00,78.9,71.5,29.80,South,180,0.0,0.0,78,0.00,,---,0.00,VWS V13.01,2013-11-05 07:28:00,
2013-11-05 03:29:00,78.9,71.5,29.80,South,180,0.0,0.0,78,0.00,,---,0.00,VWS V13.01,2013-11-05 07:29:00,
2013-11-05 03:30:00,78.9,71.5,29.80,South,180,0.0,0.0,78,0.00,,---,0.00,VWS V13.01,2013-11-05 07:30:00,
2013-11-05 03:32:00,78.9,71.5,29.80,South,180,0.0,0.0,78,0.00,,---,0.00,VWS V13.01,2013-11-05 07:32:00,
2013-11-05 03:33:00,78.9,71.5,29.80,South,180,0.0,0.0,78,0.00,,---,0.00,VWS V13.01,2013-11-05 07:33:00,
2013-11-05 03:34:00,78.9,71.5,29.80,South,180,0.0,0.0,78,0.00,,---,0.00,VWS V13.01,2013-11-05 07:34:00,
2013-11-05 03:35:00,78.9,71.5,29.80,South,180,0.0,0.0,78,0.00,,---,0.00,VWS V13.01,2013-11-05 07:35:00,
2013-11-05 03:37:00,78.9,71.5,29.80,SSW,202,0.0,0.0,78,0.00,,---,0.00,VWS V13.01,2013-11-05 07:37:00,
2013-11-05 03:38:00,78.8,71.4,29.80,South,180,0.0,0.0,78,0.00,,---,0.00,VWS V13.01,2013-11-05 07:38:00,
2013-11-05 03:39:00,78.9,71.5,29.80,SSE,158,0.0,0.0,78,0.00,,---,0.00,VWS V13.01,2013-11-05 07:39:00,
2013-11-05 03:40:00,78.9,71.5,29.80,SSE,158,0.0,0.0,78,0.00,,---,0.00,VWS V13.01,2013-11-05 07:40:00,
2013-11-05 03:42:00,78.6,71.2,29.80,SSW,202,0.0,0.0,78,0.00,,---,0.00,VWS V13.01,2013-11-05 07:42:00,
2013-11-05 03:43:00,78.8,71.4,29.80,South,180,1.3,1.3,78,0.00,,---,0.00,VWS V13.01,2013-11-05 07:43:00,
2013-11-05 03:44:00,78.8,71.4,29.80,SSE,158,1.3,1.3,78,0.00,,---,0.00,VWS V13.01,2013-11-05 07:44:00,
2013-11-05 03:45:00,78.8,71.4,29.80,South,180,3.8,3.8,78,0.00,,---,0.00,VWS V13.01,2013-11-05 07:45:00,
2013-11-05 03:47:00,78.8,71.4,29.81,South,180,0.0,0.0,78,0.00,,---,0.00,VWS V13.01,2013-11-05 07:47:00,
2013-11-05 03:48:00,78.8,71.4,29.80,South,180,0.0,0.0,78,0.00,,---,0.00,VWS V13.01,2013-11-05 07:48:00,
2013-11-05 03:50:00,78.8,71.4,29.80,South,180,0.0,0.0,78,0.00,,---,0.00,VWS V13.01,2013-11-05 07:50:00,
2013-11-05 03:52:00,78.8,71.4,29.80,South,180,0.8,0.8,78,0.00,,---,0.00,VWS V13.01,2013-11-05 07:52:00,
2013-11-05 03:53:00,78.8,71.4,29.80,South,180,1.5,1.5,78,0.00,,---,0.00,VWS V13.01,2013-11-05 07:53:00,
2013-11-05 03:55:00,78.8,71.4,29.80,ESE,112,0.0,0.0,78,0.00,,---,0.00,VWS V13.01,2013-11-05 07:55:00,
2013-11-05 03:57:00,78.6,71.2,29.80,South,180,0.0,0.0,78,0.00,,---,0.00,VWS V13.01,2013-11-05 07:57:00,
2013-11-05 03:58:00,78.6,71.2,29.80,South,180,0.0,0.0,78,0.00,,---,0.00,VWS V13.01,2013-11-05 07:58:00,
2013-11-05 04:00:00,78.6,71.2,29.80,South,180,2.0,2.0,78,0.00,,---,0.00,VWS V13.01,2013-11-05 08:00:00,
2013-11-05 04:02:00,78.6,71.2,29.80,SSE,158,0.0,0.0,78,0.00,,---,0.00,VWS V13.01,2013-11-05 08:02:00,
2013-11-05 04:03:00,78.6,71.2,29.80,SSW,202,1.5,1.5,78,0.00,,---,0.00,VWS V13.01,2013-11-05 08:03:00,
2013-11-05 04:04:00,78.6,71.2,29.80,South,180,0.0,0.0,78,0.00,,---,0.00,VWS V13.01,2013-11-05 08:04:00,
2013-11-05 04:05:00,78.6,71.2,29.80,SE,135,0.0,0.0,78,0.00,,---,0.00,VWS V13.01,2013-11-05 08:05:00,
2013-11-05 04:07:00,78.6,71.2,29.80,South,180,0.0,0.0,78,0.00,,---,0.00,VWS V13.01,2013-11-05 08:07:00,
2013-11-05 04:08:00,78.6,71.2,29.80,SSE,158,0.0,0.0,78,0.00,,---,0.00,VWS V13.01,2013-11-05 08:08:00,
2013-11-05 04:09:00,78.6,71.2,29.80,SSE,158,0.0,0.0,78,0.00,,---,0.00,VWS V13.01,2013-11-05 08:09:00,
2013-11-05 04:10:00,78.6,71.2,29.80,South,180,1.5,1.5,78,0.00,,---,0.00,VWS V13.01,2013-11-05 08:10:00,
2013-11-05 04:12:00,78.6,71.2,29.80,South,180,0.0,0.0,78,0.00,,---,0.00,VWS V13.01,2013-11-05 08:12:00,
2013-11-05 04:13:00,78.6,71.2,29.80,SSE,158,0.0,0.0,78,0.00,,---,0.00,VWS V13.01,2013-11-05 08:13:00,
2013-11-05 04:14:00,78.6,71.2,29.80,SSE,158,0.0,0.0,78,0.00,,---,0.00,VWS V13.01,2013-11-05 08:14:00,
2013-11-05 04:15:00,78.6,71.2,29.80,South,180,0.0,0.0,78,0.00,,---,0.00,VWS V13.01,2013-11-05 08:15:00,
2013-11-05 04:17:00,78.6,71.2,29.80,South,180,0.0,0.0,78,0.00,,---,0.00,VWS V13.01,2013-11-05 08:17:00,
2013-11-05 04:18:00,78.6,71.2,29.80,SE,135,0.0,0.0,78,0.00,,---,0.00,VWS V13.01,2013-11-05 08:18:00,
2013-11-05 04:19:00,78.6,71.2,29.80,SE,135,0.0,0.0,78,0.00,,---,0.00,VWS V13.01,2013-11-05 08:19:00,
2013-11-05 04:20:00,78.6,71.2,29.80,SE,135,0.0,0.0,78,0.00,,---,0.00,VWS V13.01,2013-11-05 08:20:00,
2013-11-05 04:21:00,78.6,71.2,29.80,SE,135,0.0,0.0,78,0.00,,---,0.00,VWS V13.01,2013-11-05 08:21:00,
2013-11-05 04:22:00,78.6,71.2,29.80,SE,135,0.0,0.0,78,0.00,,---,0.00,VWS V13.01,2013-11-05 08:22:00,
2013-11-05 04:23:00,78.6,71.2,29.80,South,180,0.0,0.0,78,0.00,,---,0.00,VWS V13.01,2013-11-05 08:23:00,
2013-11-05 04:24:00,78.6,71.2,29.80,South,180,0.0,0.0,78,0.00,,---,0.00,VWS V13.01,2013-11-05 08:24:00,
2013-11-05 04:25:00,78.6,71.2,29.80,South,180,0.0,0.0,78,0.00,,---,0.00,VWS V13.01,2013-11-05 08:25:00,
2013-11-05 04:26:00,78.6,71.2,29.80,South,180,0.0,0.0,78,0.00,,---,0.00,VWS V13.01,2013-11-05 08:26:00,
2013-11-05 04:27:00,78.6,71.2,29.80,SSE,158,0.0,0.0,78,0.00,,---,0.00,VWS V13.01,2013-11-05 08:27:00,
2013-11-05 04:28:00,78.6,71.2,29.80,SSE,158,0.0,0.0,78,0.00,,---,0.00,VWS V13.01,2013-11-05 08:28:00,
2013-11-05 04:29:00,78.6,71.2,29.80,SSE,158,0.0,0.0,78,0.00,,---,0.00,VWS V13.01,2013-11-05 08:29:00,
2013-11-05 04:31:00,78.6,71.2,29.80,SSE,158,0.0,0.0,78,0.00,,---,0.00,VWS V13.01,2013-11-05 08:31:00,
2013-11-05 04:32:00,78.6,71.2,29.80,SSE,158,0.0,0.0,78,0.00,,---,0.00,VWS V13.01,2013-11-05 08:32:00,
2013-11-05 04:33:00,78.6,71.2,29.80,SSE,158,0.0,0.0,78,0.00,,---,0.00,VWS V13.01,2013-11-05 08:33:00,
2013-11-05 04:34:00,78.6,71.2,29.80,SSE,158,0.0,0.0,78,0.00,,---,0.00,VWS V13.01,2013-11-05 08:34:00,
2013-11-05 04:36:00,78.6,71.2,29.80,SSE,158,0.0,0.0,78,0.00,,---,0.00,VWS V13.01,2013-11-05 08:36:00,
2013-11-05 04:37:00,78.6,71.2,29.80,SSE,158,0.0,0.0,78,0.00,,---,0.00,VWS V13.01,2013-11-05 08:37:00,
2013-11-05 04:38:00,78.6,71.2,29.80,SE,135,0.0,0.0,78,0.00,,---,0.00,VWS V13.01,2013-11-05 08:38:00,
2013-11-05 04:39:00,78.6,71.2,29.80,SE,135,0.0,0.0,78,0.00,,---,0.00,VWS V13.01,2013-11-05 08:39:00,
2013-11-05 04:41:00,78.6,71.2,29.80,SE,135,0.0,0.0,78,0.00,,---,0.00,VWS V13.01,2013-11-05 08:41:00,
2013-11-05 04:42:00,78.4,71.0,29.80,SSE,158,0.0,0.0,78,0.00,,---,0.00,VWS V13.01,2013-11-05 08:42:00,
2013-11-05 04:43:00,78.6,71.2,29.80,SSE,158,0.0,0.0,78,0.00,,---,0.00,VWS V13.01,2013-11-05 08:43:00,
2013-11-05 04:44:00,78.4,71.0,29.80,SSE,158,0.0,0.0,78,0.00,,---,0.00,VWS V13.01,2013-11-05 08:44:00,
2013-11-05 04:46:00,78.6,71.2,29.80,SE,135,0.0,0.0,78,0.00,,---,0.00,VWS V13.01,2013-11-05 08:46:00,
2013-11-05 04:47:00,78.6,71.2,29.80,SE,135,0.0,0.0,78,0.00,,---,0.00,VWS V13.01,2013-11-05 08:47:00,
2013-11-05 04:49:00,78.4,71.0,29.80,SE,135,0.0,0.0,78,0.00,,---,0.00,VWS V13.01,2013-11-05 08:49:00,
2013-11-05 04:51:00,78.6,71.2,29.80,SE,135,0.0,0.0,78,0.00,,---,0.00,VWS V13.01,2013-11-05 08:51:00,
2013-11-05 04:52:00,78.4,71.0,29.80,SSE,158,0.0,0.0,78,0.00,,---,0.00,VWS V13.01,2013-11-05 08:52:00,
2013-11-05 04:53:00,78.6,71.2,29.80,SE,135,0.0,0.0,78,0.00,,---,0.00,VWS V13.01,2013-11-05 08:53:00,
2013-11-05 04:54:00,78.4,71.0,29.80,SSE,158,0.0,0.0,78,0.00,,---,0.00,VWS V13.01,2013-11-05 08:54:00,
2013-11-05 04:55:00,78.4,71.0,29.80,SSE,158,0.0,0.0,78,0.00,,---,0.00,VWS V13.01,2013-11-05 08:55:00,
2013-11-05 04:56:00,78.4,71.0,29.80,South,180,0.0,0.0,78,0.00,,---,0.00,VWS V13.01,2013-11-05 08:56:00,
2013-11-05 04:57:00,78.4,71.0,29.80,South,180,0.0,0.0,78,0.00,,---,0.00,VWS V13.01,2013-11-05 08:57:00,
2013-11-05 04:58:00,78.4,71.0,29.80,South,180,0.0,0.0,78,0.00,,---,0.00,VWS V13.01,2013-11-05 08:58:00,
2013-11-05 04:59:00,78.4,71.0,29.81,South,180,0.0,0.0,78,0.00,,---,0.00,VWS V13.01,2013-11-05 08:59:00,
2013-11-05 05:00:00,78.4,71.0,29.81,South,180,0.0,0.0,78,0.00,,---,0.00,VWS V13.01,2013-11-05 09:00:00,
2013-11-05 05:01:00,78.4,71.0,29.80,South,180,0.0,0.0,78,0.00,,---,0.00,VWS V13.01,2013-11-05 09:01:00,
2013-11-05 05:02:00,78.4,71.0,29.80,South,180,0.0,0.0,78,0.00,,---,0.00,VWS V13.01,2013-11-05 09:02:00,
2013-11-05 05:04:00,78.4,71.0,29.81,South,180,0.0,0.0,78,0.00,,---,0.00,VWS V13.01,2013-11-05 09:04:00,
2013-11-05 05:05:00,78.4,71.0,29.80,South,180,1.3,1.3,78,0.00,,---,0.00,VWS V13.01,2013-11-05 09:05:00,
2013-11-05 05:06:00,78.4,71.0,29.80,South,180,0.0,0.0,78,0.00,,---,0.00,VWS V13.01,2013-11-05 09:06:00,
2013-11-05 05:07:00,78.4,71.0,29.80,South,180,0.0,0.0,78,0.00,,---,0.00,VWS V13.01,2013-11-05 09:07:00,
2013-11-05 05:09:00,78.4,71.0,29.80,SSE,158,0.0,0.0,78,0.00,,---,0.00,VWS V13.01,2013-11-05 09:09:00,
2013-11-05 05:10:00,78.4,71.0,29.81,South,180,0.0,0.0,78,0.00,,---,0.00,VWS V13.01,2013-11-05 09:10:00,
2013-11-05 05:12:00,78.4,71.0,29.81,South,180,0.0,0.0,78,0.00,,---,0.00,VWS V13.01,2013-11-05 09:12:00,
2013-11-05 05:14:00,78.4,71.0,29.81,SSW,202,0.0,0.0,78,0.00,,---,0.00,VWS V13.01,2013-11-05 09:14:00,
2013-11-05 05:15:00,78.4,71.0,29.80,South,180,1.1,1.1,78,0.00,,---,0.00,VWS V13.01,2013-11-05 09:15:00,
2013-11-05 05:17:00,78.4,71.0,29.81,South,180,0.0,0.0,78,0.00,,---,0.00,VWS V13.01,2013-11-05 09:17:00,
2013-11-05 05:19:00,78.4,71.0,29.81,South,180,1.5,1.5,78,0.00,,---,0.00,VWS V13.01,2013-11-05 09:19:00,
2013-11-05 05:20:00,78.4,71.0,29.81,South,180,1.5,1.5,78,0.00,,---,0.00,VWS V13.01,2013-11-05 09:20:00,
2013-11-05 05:21:00,78.4,71.0,29.81,South,180,0.0,0.0,78,0.00,,---,0.00,VWS V13.01,2013-11-05 09:21:00,
2013-11-05 05:22:00,78.4,71.0,29.81,SSE,158,0.0,0.0,78,0.00,,---,0.00,VWS V13.01,2013-11-05 09:22:00,
2013-11-05 05:25:00,78.4,71.0,29.81,SE,135,0.0,0.0,78,0.00,,---,0.00,VWS V13.01,2013-11-05 09:25:00,
2013-11-05 05:26:00,78.4,71.0,29.81,SE,135,0.0,0.0,78,0.00,,---,0.00,VWS V13.01,2013-11-05 09:26:00,
2013-11-05 05:27:00,78.4,71.0,29.81,SSE,158,0.0,0.0,78,0.00,,---,0.00,VWS V13.01,2013-11-05 09:27:00,
2013-11-05 05:30:00,78.4,71.0,29.80,SSE,158,0.0,0.0,78,0.00,,---,0.00,VWS V13.01,2013-11-05 09:30:00,
2013-11-05 05:31:00,78.4,71.0,29.81,SSE,158,0.0,0.0,78,0.00,,---,0.00,VWS V13.01,2013-11-05 09:31:00,
2013-11-05 05:32:00,78.4,71.0,29.80,SSE,158,0.0,0.0,78,0.00,,---,0.00,VWS V13.01,2013-11-05 09:32:00,
2013-11-05 05:35:00,78.4,71.0,29.81,SSE,158,0.0,0.0,78,0.00,,---,0.00,VWS V13.01,2013-11-05 09:35:00,
2013-11-05 05:36:00,78.4,71.0,29.81,SSE,158,0.0,0.0,78,0.00,,---,0.00,VWS V13.01,2013-11-05 09:36:00,
2013-11-05 05:37:00,78.4,71.0,29.81,SSE,158,0.0,0.0,78,0.00,,---,0.00,VWS V13.01,2013-11-05 09:37:00,
2013-11-05 05:40:00,78.4,71.0,29.81,South,180,0.0,0.0,78,0.00,,---,0.00,VWS V13.01,2013-11-05 09:40:00,
2013-11-05 05:41:00,78.4,71.0,29.81,South,180,0.0,0.0,78,0.00,,---,0.00,VWS V13.01,2013-11-05 09:41:00,
2013-11-05 05:42:00,78.4,71.0,29.81,South,180,0.0,0.0,78,0.00,,---,0.00,VWS V13.01,2013-11-05 09:42:00,
2013-11-05 05:45:00,78.2,70.8,29.81,SSE,158,0.0,0.0,78,0.00,,---,0.00,VWS V13.01,2013-11-05 09:45:00,
2013-11-05 05:46:00,78.2,70.8,29.81,SSE,158,0.0,0.0,78,0.00,,---,0.00,VWS V13.01,2013-11-05 09:46:00,
2013-11-05 05:47:00,78.2,70.8,29.81,SSE,158,0.0,0.0,78,0.00,,---,0.00,VWS V13.01,2013-11-05 09:47:00,
2013-11-05 05:48:00,78.2,70.8,29.81,SSE,158,0.0,0.0,78,0.00,,---,0.00,VWS V13.01,2013-11-05 09:48:00,
2013-11-05 05:50:00,78.0,70.6,29.81,SSE,158,0.0,0.0,78,0.00,,---,0.00,VWS V13.01,2013-11-05 09:50:00,
2013-11-05 05:51:00,78.0,70.6,29.81,SSE,158,0.0,0.0,78,0.00,,---,0.00,VWS V13.01,2013-11-05 09:51:00,
2013-11-05 05:52:00,78.2,70.8,29.81,SSE,158,0.0,0.0,78,0.00,,---,0.00,VWS V13.01,2013-11-05 09:52:00,
2013-11-05 05:53:00,78.2,70.8,29.81,SSE,158,0.0,0.0,78,0.00,,---,0.00,VWS V13.01,2013-11-05 09:53:00,
2013-11-05 05:55:00,78.0,70.6,29.81,SE,135,0.0,0.0,78,0.00,,---,0.00,VWS V13.01,2013-11-05 09:55:00,
2013-11-05 05:56:00,78.0,71.0,29.81,SE,135,0.0,0.0,79,0.00,,---,0.00,VWS V13.01,2013-11-05 09:56:00,
2013-11-05 05:57:00,78.0,71.0,29.81,SE,135,0.0,0.0,79,0.00,,---,0.00,VWS V13.01,2013-11-05 09:57:00,
2013-11-05 05:58:00,78.0,71.0,29.81,SE,135,0.0,0.0,79,0.00,,---,0.00,VWS V13.01,2013-11-05 09:58:00,
2013-11-05 06:00:00,78.0,71.0,29.81,SE,135,0.0,0.0,79,0.00,,---,0.00,VWS V13.01,2013-11-05 10:00:00,
2013-11-05 06:01:00,78.0,71.0,29.81,South,180,0.0,0.0,79,0.00,,---,0.00,VWS V13.01,2013-11-05 10:01:00,
2013-11-05 06:02:00,78.0,71.0,29.81,South,180,0.0,0.0,79,0.00,,---,0.00,VWS V13.01,2013-11-05 10:02:00,
2013-11-05 06:03:00,78.0,71.0,29.81,South,180,0.0,0.0,79,0.00,,---,0.00,VWS V13.01,2013-11-05 10:03:00,
2013-11-05 06:05:00,78.0,71.0,29.81,South,180,2.0,2.0,79,0.00,,---,0.00,VWS V13.01,2013-11-05 10:05:00,
2013-11-05 06:06:00,78.0,71.0,29.81,SE,135,0.0,0.0,79,0.00,,---,0.00,VWS V13.01,2013-11-05 10:06:00,
2013-11-05 06:07:00,78.0,71.0,29.81,SSE,158,1.7,1.7,79,0.00,,---,0.00,VWS V13.01,2013-11-05 10:07:00,
2013-11-05 06:08:00,78.0,71.0,29.81,SSE,158,1.7,1.7,79,0.00,,---,0.00,VWS V13.01,2013-11-05 10:08:00,
2013-11-05 06:10:00,78.0,71.0,29.81,SE,135,2.0,2.0,79,0.00,,---,0.00,VWS V13.01,2013-11-05 10:10:00,
2013-11-05 06:12:00,78.0,71.0,29.81,South,180,0.0,0.0,79,0.00,,---,0.00,VWS V13.01,2013-11-05 10:12:00,
2013-11-05 06:13:00,78.0,71.0,29.81,South,180,0.0,0.0,79,0.00,,---,0.00,VWS V13.01,2013-11-05 10:13:00,
2013-11-05 06:15:00,78.0,71.0,29.82,SSE,158,0.0,0.0,79,0.00,,---,0.00,VWS V13.01,2013-11-05 10:15:00,
2013-11-05 06:17:00,78.0,71.0,29.81,SE,135,0.0,0.0,79,0.00,,---,0.00,VWS V13.01,2013-11-05 10:17:00,
2013-11-05 06:18:00,78.0,71.0,29.81,SSE,158,0.0,0.0,79,0.00,,---,0.00,VWS V13.01,2013-11-05 10:18:00,
2013-11-05 06:20:00,78.0,71.0,29.82,SE,135,0.0,0.0,79,0.00,,---,0.00,VWS V13.01,2013-11-05 10:20:00,
2013-11-05 06:22:00,78.0,71.0,29.82,SE,135,0.0,0.0,79,0.00,,---,0.00,VWS V13.01,2013-11-05 10:22:00,
2013-11-05 06:23:00,78.0,71.0,29.82,SE,135,0.0,0.0,79,0.00,,---,0.00,VWS V13.01,2013-11-05 10:23:00,
2013-11-05 06:25:00,78.0,71.0,29.82,SSE,158,0.0,0.0,79,0.00,,---,0.00,VWS V13.01,2013-11-05 10:25:00,
2013-11-05 06:26:00,78.0,71.0,29.82,SSE,158,0.0,0.0,79,0.00,,---,0.00,VWS V13.01,2013-11-05 10:26:00,
2013-11-05 06:27:00,78.0,71.0,29.82,SSE,158,0.0,0.0,79,0.00,,---,0.00,VWS V13.01,2013-11-05 10:27:00,
2013-11-05 06:28:00,78.0,71.0,29.82,SE,135,0.0,0.0,79,0.00,,---,0.00,VWS V13.01,2013-11-05 10:28:00,
2013-11-05 06:30:00,78.0,71.0,29.82,South,180,0.0,0.0,79,0.00,,---,0.00,VWS V13.01,2013-11-05 10:30:00,
2013-11-05 06:31:00,78.0,71.0,29.82,South,180,0.0,0.0,79,0.00,,---,0.00,VWS V13.01,2013-11-05 10:31:00,
2013-11-05 06:32:00,78.0,71.0,29.82,South,180,1.7,1.7,79,0.00,,---,0.00,VWS V13.01,2013-11-05 10:32:00,
2013-11-05 06:33:00,78.0,71.0,29.82,SSE,158,0.0,0.0,79,0.00,,---,0.00,VWS V13.01,2013-11-05 10:33:00,
2013-11-05 06:35:00,78.0,71.0,29.82,SSE,158,0.0,0.0,79,0.00,,---,0.00,VWS V13.01,2013-11-05 10:35:00,
2013-11-05 06:36:00,78.0,71.0,29.82,SSE,158,0.0,0.0,79,0.00,,---,0.00,VWS V13.01,2013-11-05 10:36:00,
2013-11-05 06:37:00,78.0,71.0,29.82,SSE,158,1.3,1.3,79,0.00,,---,0.00,VWS V13.01,2013-11-05 10:37:00,
2013-11-05 06:38:00,78.0,71.0,29.83,SE,135,0.0,0.0,79,0.00,,---,0.00,VWS V13.01,2013-11-05 10:38:00,
2013-11-05 06:40:00,78.0,71.0,29.82,SE,135,0.0,0.0,79,0.00,,---,0.00,VWS V13.01,2013-11-05 10:40:00,
2013-11-05 06:41:00,78.0,71.0,29.82,SE,135,0.0,0.0,79,0.00,,---,0.00,VWS V13.01,2013-11-05 10:41:00,
2013-11-05 06:42:00,78.0,71.0,29.83,SSE,158,0.6,0.6,79,0.00,,---,0.00,VWS V13.01,2013-11-05 10:42:00,
2013-11-05 06:43:00,78.0,71.0,29.82,SSE,158,1.7,1.7,79,0.00,,---,0.00,VWS V13.01,2013-11-05 10:43:00,
2013-11-05 06:44:00,78.0,71.0,29.83,SSE,158,1.3,1.3,79,0.00,,---,0.00,VWS V13.01,2013-11-05 10:44:00,
2013-11-05 06:45:00,78.0,71.0,29.83,SSE,158,0.0,0.0,79,0.00,,---,0.00,VWS V13.01,2013-11-05 10:45:00,
2013-11-05 06:46:00,78.2,71.2,29.83,SSE,158,0.0,0.0,79,0.00,,---,0.00,VWS V13.01,2013-11-05 10:46:00,
2013-11-05 06:47:00,78.2,71.2,29.83,SE,135,0.0,0.0,79,0.00,,---,0.00,VWS V13.01,2013-11-05 10:47:00,
2013-11-05 06:48:00,78.2,71.2,29.83,SE,135,0.0,0.0,79,0.00,,---,0.00,VWS V13.01,2013-11-05 10:48:00,
2013-11-05 06:49:00,78.2,71.2,29.83,SE,135,0.0,0.0,79,0.00,,---,0.00,VWS V13.01,2013-11-05 10:49:00,
2013-11-05 06:50:00,78.2,71.2,29.83,SE,135,1.5,1.5,79,0.00,,---,0.00,VWS V13.01,2013-11-05 10:50:00,
2013-11-05 06:51:00,78.4,71.3,29.82,SE,135,2.0,2.0,79,0.00,,---,0.00,VWS V13.01,2013-11-05 10:51:00,
2013-11-05 06:52:00,78.4,71.3,29.83,SE,135,3.1,3.1,79,0.00,,---,0.00,VWS V13.01,2013-11-05 10:52:00,
2013-11-05 06:53:00,78.4,71.3,29.83,SE,135,3.1,3.1,79,0.00,,---,0.00,VWS V13.01,2013-11-05 10:53:00,
2013-11-05 06:54:00,78.4,71.3,29.82,SE,135,1.3,1.3,79,0.00,,---,0.00,VWS V13.01,2013-11-05 10:54:00,
2013-11-05 06:55:00,78.4,71.3,29.82,SE,135,1.7,1.7,79,0.00,,---,0.00,VWS V13.01,2013-11-05 10:55:00,
2013-11-05 06:56:00,78.4,71.3,29.83,SE,135,2.9,2.9,79,0.00,,---,0.00,VWS V13.01,2013-11-05 10:56:00,
2013-11-05 06:57:00,78.4,71.7,29.83,ESE,112,1.5,1.5,80,0.00,,---,0.00,VWS V13.01,2013-11-05 10:57:00,
2013-11-05 06:58:00,78.4,71.7,29.82,SE,135,1.3,1.3,80,0.00,,---,0.00,VWS V13.01,2013-11-05 10:58:00,
2013-11-05 06:59:00,78.4,71.7,29.82,SE,135,1.3,1.3,80,0.00,,---,0.00,VWS V13.01,2013-11-05 10:59:00,
2013-11-05 07:01:00,78.4,71.7,29.83,SSE,158,0.0,0.0,80,0.00,,---,0.00,VWS V13.01,2013-11-05 11:01:00,
2013-11-05 07:02:00,78.6,71.9,29.83,SE,135,0.0,0.0,80,0.00,,---,0.00,VWS V13.01,2013-11-05 11:02:00,
2013-11-05 07:03:00,78.6,71.9,29.83,SE,135,0.0,0.0,80,0.00,,---,0.00,VWS V13.01,2013-11-05 11:03:00,
2013-11-05 07:04:00,78.6,71.9,29.83,South,180,0.0,0.0,80,0.00,,---,0.00,VWS V13.01,2013-11-05 11:04:00,
2013-11-05 07:06:00,78.6,71.9,29.83,SSE,158,0.0,0.0,80,0.00,,---,0.00,VWS V13.01,2013-11-05 11:06:00,
2013-11-05 07:07:00,78.6,71.9,29.83,SSE,158,0.0,0.0,80,0.00,,---,0.00,VWS V13.01,2013-11-05 11:07:00,
2013-11-05 07:08:00,78.6,71.9,29.83,South,180,0.0,0.0,80,0.00,,---,0.00,VWS V13.01,2013-11-05 11:08:00,
2013-11-05 07:09:00,78.6,71.9,29.83,South,180,0.0,0.0,80,0.00,,---,0.00,VWS V13.01,2013-11-05 11:09:00,
2013-11-05 07:11:00,78.6,71.9,29.83,SSW,202,1.3,1.3,80,0.00,,---,0.00,VWS V13.01,2013-11-05 11:11:00,
2013-11-05 07:12:00,78.6,71.9,29.83,SE,135,0.0,0.0,80,0.00,,---,0.00,VWS V13.01,2013-11-05 11:12:00,
2013-11-05 07:13:00,78.6,71.9,29.84,SE,135,0.0,0.0,80,0.00,,---,0.00,VWS V13.01,2013-11-05 11:13:00,
2013-11-05 07:14:00,78.6,71.9,29.84,South,180,0.0,0.0,80,0.00,,---,0.00,VWS V13.01,2013-11-05 11:14:00,
2013-11-05 07:16:00,78.6,71.9,29.84,SE,135,0.0,0.0,80,0.00,,---,0.00,VWS V13.01,2013-11-05 11:16:00,
2013-11-05 07:17:00,78.6,71.9,29.84,ESE,112,0.0,0.0,80,0.00,,---,0.00,VWS V13.01,2013-11-05 11:17:00,
2013-11-05 07:18:00,78.6,71.6,29.84,SE,135,0.0,0.0,79,0.00,,---,0.00,VWS V13.01,2013-11-05 11:18:00,
2013-11-05 07:19:00,78.8,71.7,29.84,SSE,158,0.0,0.0,79,0.00,,---,0.00,VWS V13.01,2013-11-05 11:19:00,
2013-11-05 07:21:00,78.9,71.8,29.84,South,180,2.0,2.0,79,0.00,,---,0.00,VWS V13.01,2013-11-05 11:21:00,
2013-11-05 07:22:00,78.8,71.7,29.84,ESE,112,1.3,1.3,79,0.00,,---,0.00,VWS V13.01,2013-11-05 11:22:00,
2013-11-05 07:23:00,78.9,71.8,29.84,SE,135,0.0,0.0,79,0.00,,---,0.00,VWS V13.01,2013-11-05 11:23:00,
2013-11-05 07:24:00,78.9,71.8,29.84,SSE,158,1.3,1.3,79,0.00,,---,0.00,VWS V13.01,2013-11-05 11:24:00,
2013-11-05 07:26:00,78.9,71.8,29.84,South,180,2.4,2.4,79,0.00,,---,0.00,VWS V13.01,2013-11-05 11:26:00,
2013-11-05 07:28:00,78.9,71.8,29.84,SSE,158,2.0,2.0,79,0.00,,---,0.00,VWS V13.01,2013-11-05 11:28:00,
2013-11-05 07:29:00,78.9,71.8,29.84,SSE,158,2.4,2.4,79,0.00,,---,0.00,VWS V13.01,2013-11-05 11:29:00,
2013-11-05 07:31:00,78.9,71.8,29.84,SSE,158,0.0,0.0,79,0.00,,---,0.00,VWS V13.01,2013-11-05 11:31:00,
2013-11-05 07:33:00,79.1,72.0,29.84,SSE,158,0.0,0.0,79,0.00,,---,0.00,VWS V13.01,2013-11-05 11:33:00,
2013-11-05 07:34:00,78.9,71.8,29.84,SE,135,1.7,1.7,79,0.00,,---,0.00,VWS V13.01,2013-11-05 11:34:00,
2013-11-05 07:35:00,78.9,71.8,29.84,SE,135,1.7,1.7,79,0.00,,---,0.00,VWS V13.01,2013-11-05 11:35:00,
2013-11-05 07:36:00,79.1,72.0,29.84,SSE,158,1.7,1.7,79,0.00,,---,0.00,VWS V13.01,2013-11-05 11:36:00,
2013-11-05 07:38:00,79.1,72.0,29.84,SE,135,0.0,0.0,79,0.00,,---,0.00,VWS V13.01,2013-11-05 11:38:00,
2013-11-05 07:39:00,79.3,72.2,29.84,SE,135,0.0,0.0,79,0.00,,---,0.00,VWS V13.01,2013-11-05 11:39:00,
2013-11-05 07:40:00,79.3,72.2,29.84,SE,135,0.0,0.0,79,0.00,,---,0.00,VWS V13.01,2013-11-05 11:40:00,
2013-11-05 07:41:00,79.3,72.2,29.84,SSE,158,2.4,2.4,79,0.00,,---,0.00,VWS V13.01,2013-11-05 11:41:00,
2013-11-05 07:43:00,79.5,72.4,29.84,SSE,158,1.3,1.3,79,0.00,,---,0.00,VWS V13.01,2013-11-05 11:43:00,
2013-11-05 07:44:00,79.5,72.4,29.84,SSE,158,1.3,1.3,79,0.00,,---,0.00,VWS V13.01,2013-11-05 11:44:00,
2013-11-05 07:45:00,79.5,72.4,29.84,SE,135,0.0,0.0,79,0.00,,---,0.00,VWS V13.01,2013-11-05 11:45:00,
2013-11-05 07:46:00,79.5,72.4,29.84,SE,135,0.0,0.0,79,0.00,,---,0.00,VWS V13.01,2013-11-05 11:46:00,
2013-11-05 07:47:00,79.5,72.4,29.84,SE,135,0.0,0.0,79,0.00,,---,0.00,VWS V13.01,2013-11-05 11:47:00,
2013-11-05 07:48:00,79.5,72.4,29.85,SSE,158,0.0,0.0,79,0.00,,---,0.00,VWS V13.01,2013-11-05 11:48:00,
2013-11-05 07:49:00,79.5,72.4,29.85,SSE,158,0.0,0.0,79,0.00,,---,0.00,VWS V13.01,2013-11-05 11:49:00,
2013-11-05 07:50:00,79.5,72.4,29.85,SE,135,0.6,0.6,79,0.00,,---,0.00,VWS V13.01,2013-11-05 11:50:00,
2013-11-05 07:51:00,79.7,72.6,29.85,SSE,158,0.0,0.0,79,0.00,,---,0.00,VWS V13.01,2013-11-05 11:51:00,
2013-11-05 07:52:00,79.7,72.6,29.85,SSE,158,0.0,0.0,79,0.00,,---,0.00,VWS V13.01,2013-11-05 11:52:00,
2013-11-05 07:53:00,79.8,72.7,29.84,SSE,158,0.8,0.8,79,0.00,,---,0.00,VWS V13.01,2013-11-05 11:53:00,
2013-11-05 07:54:00,79.8,72.7,29.84,SSE,158,0.8,0.8,79,0.00,,---,0.00,VWS V13.01,2013-11-05 11:54:00,
2013-11-05 07:55:00,79.8,72.3,29.85,South,180,1.5,1.5,78,0.00,,---,0.00,VWS V13.01,2013-11-05 11:55:00,
2013-11-05 07:56:00,79.8,72.3,29.85,SE,135,0.0,0.0,78,0.00,,---,0.00,VWS V13.01,2013-11-05 11:56:00,
2013-11-05 07:57:00,79.8,72.3,29.85,SE,135,0.0,0.0,78,0.00,,---,0.00,VWS V13.01,2013-11-05 11:57:00,
2013-11-05 07:58:00,80.0,72.5,29.85,SE,135,0.0,0.0,78,0.00,,---,0.00,VWS V13.01,2013-11-05 11:58:00,
2013-11-05 07:59:00,80.2,72.7,29.85,SE,135,0.0,0.0,78,0.00,,---,0.00,VWS V13.01,2013-11-05 11:59:00,
2013-11-05 08:00:00,80.2,72.7,29.85,SSE,158,0.8,0.8,78,0.00,,---,0.00,VWS V13.01,2013-11-05 12:00:00,
2013-11-05 08:01:00,80.2,72.7,29.85,SSE,158,1.7,1.7,78,0.00,,---,0.00,VWS V13.01,2013-11-05 12:01:00,
2013-11-05 08:02:00,80.2,72.7,29.85,SSE,158,1.7,1.7,78,0.00,,---,0.00,VWS V13.01,2013-11-05 12:02:00,
2013-11-05 08:03:00,80.2,72.7,29.86,SSE,158,0.0,0.0,78,0.00,,---,0.00,VWS V13.01,2013-11-05 12:03:00,
2013-11-05 08:04:00,80.4,72.9,29.86,SE,135,0.0,0.0,78,0.00,,---,0.00,VWS V13.01,2013-11-05 12:04:00,
2013-11-05 08:05:00,80.4,72.5,29.85,SSE,158,0.0,0.0,77,0.00,,---,0.00,VWS V13.01,2013-11-05 12:05:00,
2013-11-05 08:06:00,80.4,72.5,29.85,SE,135,1.7,1.7,77,0.00,,---,0.00,VWS V13.01,2013-11-05 12:06:00,
2013-11-05 08:07:00,80.4,72.5,29.85,SE,135,1.7,1.7,77,0.00,,---,0.00,VWS V13.01,2013-11-05 12:07:00,
2013-11-05 08:09:00,80.4,72.5,29.86,East,90,0.0,0.0,77,0.00,,---,0.00,VWS V13.01,2013-11-05 12:09:00,
2013-11-05 08:10:00,80.4,72.5,29.85,SE,135,0.0,0.0,77,0.00,,---,0.00,VWS V13.01,2013-11-05 12:10:00,
2013-11-05 08:11:00,80.6,72.7,29.86,SSE,158,0.0,0.0,77,0.00,,---,0.00,VWS V13.01,2013-11-05 12:11:00,
2013-11-05 08:12:00,80.7,72.8,29.85,SE,135,2.4,2.4,77,0.00,,---,0.00,VWS V13.01,2013-11-05 12:12:00,
2013-11-05 08:14:00,80.7,72.8,29.85,SSE,158,0.0,0.0,77,0.00,,---,0.00,VWS V13.01,2013-11-05 12:14:00,
2013-11-05 08:15:00,80.7,72.8,29.85,South,180,3.8,3.8,77,0.00,,---,0.00,VWS V13.01,2013-11-05 12:15:00,
2013-11-05 08:16:00,80.7,72.8,29.85,South,180,2.4,2.4,77,0.00,,---,0.00,VWS V13.01,2013-11-05 12:16:00,
2013-11-05 08:17:00,80.9,73.0,29.86,SSE,158,4.4,4.4,77,0.00,,---,0.00,VWS V13.01,2013-11-05 12:17:00,
2013-11-05 08:19:00,80.9,72.6,29.86,SE,135,4.4,4.4,76,0.00,,---,0.00,VWS V13.01,2013-11-05 12:19:00,
2013-11-05 08:20:00,80.9,72.6,29.86,SSE,158,0.0,0.0,76,0.00,,---,0.00,VWS V13.01,2013-11-05 12:20:00,
2013-11-05 08:21:00,80.9,72.6,29.86,SSE,158,0.0,0.0,76,0.00,,---,0.00,VWS V13.01,2013-11-05 12:21:00,
2013-11-05 08:22:00,80.9,72.6,29.86,SSE,158,0.0,0.0,76,0.00,,---,0.00,VWS V13.01,2013-11-05 12:22:00,
2013-11-05 08:24:00,81.1,72.8,29.86,SSE,158,0.0,0.0,76,0.00,,---,0.00,VWS V13.01,2013-11-05 12:24:00,
2013-11-05 08:25:00,81.1,72.8,29.86,SSE,158,0.0,0.0,76,0.00,,---,0.00,VWS V13.01,2013-11-05 12:25:00,
2013-11-05 08:26:00,81.1,72.8,29.86,SSE,158,0.8,0.8,76,0.00,,---,0.00,VWS V13.01,2013-11-05 12:26:00,
2013-11-05 08:27:00,81.1,72.8,29.86,SSE,158,0.0,0.0,76,0.00,,---,0.00,VWS V13.01,2013-11-05 12:27:00,
2013-11-05 08:29:00,81.3,72.6,29.86,SSE,158,0.0,0.0,75,0.00,,---,0.00,VWS V13.01,2013-11-05 12:29:00,
2013-11-05 08:30:00,81.3,72.6,29.86,South,180,1.5,1.5,75,0.00,,---,0.00,VWS V13.01,2013-11-05 12:30:00,
2013-11-05 08:31:00,81.5,72.8,29.86,SSE,158,1.7,1.7,75,0.00,,---,0.00,VWS V13.01,2013-11-05 12:31:00,
2013-11-05 08:32:00,81.5,72.8,29.86,ESE,112,3.1,3.1,75,0.00,,---,0.00,VWS V13.01,2013-11-05 12:32:00,
2013-11-05 08:34:00,81.5,72.4,29.87,SSE,158,2.9,2.9,74,0.00,,---,0.00,VWS V13.01,2013-11-05 12:34:00,
2013-11-05 08:35:00,81.5,72.4,29.87,SSE,158,2.9,2.9,74,0.00,,---,0.00,VWS V13.01,2013-11-05 12:35:00,
2013-11-05 08:36:00,81.6,72.5,29.87,SSE,158,2.2,2.2,74,0.00,,---,0.00,VWS V13.01,2013-11-05 12:36:00,
2013-11-05 08:37:00,81.6,72.5,29.86,South,180,0.0,0.0,74,0.00,,---,0.00,VWS V13.01,2013-11-05 12:37:00,
2013-11-05 08:39:00,81.8,72.7,29.87,SSE,158,1.5,1.5,74,0.00,,---,0.00,VWS V13.01,2013-11-05 12:39:00,
2013-11-05 08:40:00,81.8,72.7,29.87,SSE,158,1.5,1.5,74,0.00,,---,0.00,VWS V13.01,2013-11-05 12:40:00,
2013-11-05 08:41:00,81.8,72.7,29.87,SE,135,0.0,0.0,74,0.00,,---,0.00,VWS V13.01,2013-11-05 12:41:00,
2013-11-05 08:42:00,82.0,72.9,29.86,ENE,68,0.0,0.0,74,0.00,,---,0.00,VWS V13.01,2013-11-05 12:42:00,
2013-11-05 08:44:00,82.0,72.9,29.86,East,90,0.0,0.0,74,0.00,,---,0.00,VWS V13.01,2013-11-05 12:44:00,
2013-11-05 08:45:00,82.0,72.9,29.86,East,90,0.0,0.0,74,0.00,,---,0.00,VWS V13.01,2013-11-05 12:45:00,
2013-11-05 08:46:00,82.0,72.9,29.86,East,90,0.0,0.0,74,0.00,,---,0.00,VWS V13.01,2013-11-05 12:46:00,
2013-11-05 08:47:00,82.0,72.9,29.86,East,90,2.2,2.2,74,0.00,,---,0.00,VWS V13.01,2013-11-05 12:47:00,
2013-11-05 08:49:00,82.0,72.9,29.86,NE,45,2.0,2.0,74,0.00,,---,0.00,VWS V13.01,2013-11-05 12:49:00,
2013-11-05 08:50:00,82.0,72.9,29.86,NE,45,2.0,2.0,74,0.00,,---,0.00,VWS V13.01,2013-11-05 12:50:00,
2013-11-05 08:51:00,82.0,72.9,29.86,ESE,112,1.7,1.7,74,0.00,,---,0.00,VWS V13.01,2013-11-05 12:51:00,
2013-11-05 08:52:00,82.0,72.9,29.86,ENE,68,0.0,0.0,74,0.00,,---,0.00,VWS V13.01,2013-11-05 12:52:00,
2013-11-05 08:55:00,82.0,72.9,29.87,NNE,22,0.8,0.8,74,0.00,,---,0.00,VWS V13.01,2013-11-05 12:55:00,
2013-11-05 08:56:00,82.0,72.9,29.87,NE,45,1.3,1.3,74,0.00,,---,0.00,VWS V13.01,2013-11-05 12:56:00,
2013-11-05 08:57:00,82.0,72.9,29.87,ENE,68,4.2,4.2,74,0.00,,---,0.00,VWS V13.01,2013-11-05 12:57:00,
2013-11-05 09:00:00,82.0,72.9,29.87,ESE,112,0.0,0.0,74,0.00,,---,0.00,VWS V13.01,2013-11-05 13:00:00,
2013-11-05 09:01:00,82.0,72.9,29.87,NE,45,0.0,0.0,74,0.00,,---,0.00,VWS V13.01,2013-11-05 13:01:00,
2013-11-05 09:02:00,82.0,72.9,29.87,ENE,68,3.1,3.1,74,0.00,,---,0.00,VWS V13.01,2013-11-05 13:02:00,
2013-11-05 09:05:00,82.0,72.9,29.87,ENE,68,1.7,1.7,74,0.00,,---,0.00,VWS V13.01,2013-11-05 13:05:00,
2013-11-05 09:06:00,82.0,72.9,29.87,ENE,68,1.7,1.7,74,0.00,,---,0.00,VWS V13.01,2013-11-05 13:06:00,
2013-11-05 09:07:00,82.0,72.9,29.87,ENE,68,0.0,0.0,74,0.00,,---,0.00,VWS V13.01,2013-11-05 13:07:00,
2013-11-05 09:08:00,82.0,72.9,29.87,ENE,68,0.0,0.0,74,0.00,,---,0.00,VWS V13.01,2013-11-05 13:08:00,
2013-11-05 09:10:00,82.2,73.1,29.88,ENE,68,1.1,1.1,74,0.00,,---,0.00,VWS V13.01,2013-11-05 13:10:00,
2013-11-05 09:11:00,82.2,73.1,29.88,ENE,68,1.1,1.1,74,0.00,,---,0.00,VWS V13.01,2013-11-05 13:11:00,
2013-11-05 09:12:00,82.2,73.1,29.88,NE,45,3.5,3.5,74,0.00,,---,0.00,VWS V13.01,2013-11-05 13:12:00,
2013-11-05 09:13:00,82.2,73.1,29.88,NE,45,3.5,3.5,74,0.00,,---,0.00,VWS V13.01,2013-11-05 13:13:00,
2013-11-05 09:15:00,82.4,73.3,29.87,East,90,0.0,0.0,74,0.00,,---,0.00,VWS V13.01,2013-11-05 13:15:00,
2013-11-05 09:16:00,82.4,73.3,29.87,East,90,0.0,0.0,74,0.00,,---,0.00,VWS V13.01,2013-11-05 13:16:00,
2013-11-05 09:17:00,82.5,73.4,29.87,SE,135,0.0,0.0,74,0.00,,---,0.00,VWS V13.01,2013-11-05 13:17:00,
2013-11-05 09:18:00,82.5,73.4,29.87,SE,135,0.0,0.0,74,0.00,,---,0.00,VWS V13.01,2013-11-05 13:18:00,
2013-11-05 09:20:00,82.5,73.4,29.87,SE,135,0.0,0.0,74,0.00,,---,0.00,VWS V13.01,2013-11-05 13:20:00,
2013-11-05 09:21:00,82.5,73.4,29.87,SE,135,0.0,0.0,74,0.00,,---,0.00,VWS V13.01,2013-11-05 13:21:00,
2013-11-05 09:22:00,82.7,73.6,29.87,SSE,158,1.7,1.7,74,0.00,,---,0.00,VWS V13.01,2013-11-05 13:22:00,
2013-11-05 09:23:00,82.7,73.6,29.87,SSE,158,1.7,1.7,74,0.00,,---,0.00,VWS V13.01,2013-11-05 13:23:00,
2013-11-05 09:25:00,83.1,74.0,29.87,ENE,68,1.3,1.3,74,0.00,,---,0.00,VWS V13.01,2013-11-05 13:25:00,
2013-11-05 09:26:00,83.1,74.0,29.87,ENE,68,1.3,1.3,74,0.00,,---,0.00,VWS V13.01,2013-11-05 13:26:00,
2013-11-05 09:28:00,83.1,73.6,29.87,ESE,112,0.0,0.0,73,0.00,,---,0.00,VWS V13.01,2013-11-05 13:28:00,
2013-11-05 09:30:00,83.1,73.6,29.88,South,180,0.0,0.0,73,0.00,,---,0.00,VWS V13.01,2013-11-05 13:30:00,
2013-11-05 09:31:00,83.1,73.6,29.88,South,180,0.0,0.0,73,0.00,,---,0.00,VWS V13.01,2013-11-05 13:31:00,
2013-11-05 09:33:00,83.3,73.8,29.88,East,90,0.0,0.0,73,0.00,,---,0.00,VWS V13.01,2013-11-05 13:33:00,
2013-11-05 09:35:00,83.4,73.8,29.88,SE,135,0.0,0.0,73,0.00,,---,0.00,VWS V13.01,2013-11-05 13:35:00,
2013-11-05 09:36:00,83.4,73.8,29.88,SE,135,0.0,0.0,73,0.00,,---,0.00,VWS V13.01,2013-11-05 13:36:00,
2013-11-05 09:38:00,83.4,73.8,29.88,NE,45,1.5,1.5,73,0.00,,---,0.00,VWS V13.01,2013-11-05 13:38:00,
2013-11-05 09:40:00,83.8,74.2,29.88,East,90,1.5,1.5,73,0.00,,---,0.00,VWS V13.01,2013-11-05 13:40:00,
2013-11-05 09:41:00,83.8,74.2,29.88,East,90,1.5,1.5,73,0.00,,---,0.00,VWS V13.01,2013-11-05 13:41:00,
2013-11-05 09:43:00,83.8,74.2,29.88,ESE,112,3.8,3.8,73,0.00,,---,0.00,VWS V13.01,2013-11-05 13:43:00,
2013-11-05 09:46:00,83.8,74.2,29.88,NE,45,4.6,4.6,73,0.00,,---,0.00,VWS V13.01,2013-11-05 13:46:00,
2013-11-05 09:48:00,84.0,74.4,29.88,NE,45,3.1,3.1,73,0.00,,---,0.00,VWS V13.01,2013-11-05 13:48:00,
2013-11-05 09:51:00,84.0,74.4,29.88,ESE,112,3.3,3.3,73,0.00,,---,0.00,VWS V13.01,2013-11-05 13:51:00,
2013-11-05 09:53:00,84.0,74.4,29.88,East,90,5.1,5.1,73,0.00,,---,0.00,VWS V13.01,2013-11-05 13:53:00,
2013-11-05 09:56:00,84.0,74.4,29.88,ENE,68,1.7,1.7,73,0.00,,---,0.00,VWS V13.01,2013-11-05 13:56:00,
2013-11-05 09:58:00,84.0,74.4,29.88,ENE,68,4.6,4.6,73,0.00,,---,0.00,VWS V13.01,2013-11-05 13:58:00,
2013-11-05 10:01:00,84.0,74.4,29.88,East,90,6.9,6.9,73,0.00,,---,0.00,VWS V13.01,2013-11-05 14:01:00,
2013-11-05 10:02:00,84.0,74.4,29.88,ESE,112,5.5,5.5,73,0.00,,---,0.00,VWS V13.01,2013-11-05 14:02:00,
2013-11-05 10:03:00,84.0,74.4,29.88,ENE,68,4.9,4.9,73,0.00,,---,0.00,VWS V13.01,2013-11-05 14:03:00,
2013-11-05 10:04:00,84.0,74.4,29.88,ENE,68,4.4,4.4,73,0.00,,---,0.00,VWS V13.01,2013-11-05 14:04:00,
2013-11-05 10:06:00,84.2,74.6,29.88,East,90,3.5,3.5,73,0.00,,---,0.00,VWS V13.01,2013-11-05 14:06:00,
2013-11-05 10:07:00,84.3,74.7,29.88,NE,45,4.9,4.9,73,0.00,,---,0.00,VWS V13.01,2013-11-05 14:07:00,
2013-11-05 10:08:00,84.3,74.7,29.88,ENE,68,6.0,6.0,73,0.00,,---,0.00,VWS V13.01,2013-11-05 14:08:00,
2013-11-05 10:09:00,84.3,74.7,29.88,ENE,68,3.5,3.5,73,0.00,,---,0.00,VWS V13.01,2013-11-05 14:09:00,
2013-11-05 10:11:00,84.3,74.3,29.87,ENE,68,2.0,2.0,72,0.00,,---,0.00,VWS V13.01,2013-11-05 14:11:00,
2013-11-05 10:12:00,84.3,74.3,29.87,ENE,68,2.0,2.0,72,0.00,,---,0.00,VWS V13.01,2013-11-05 14:12:00,
2013-11-05 10:13:00,84.5,74.5,29.87,East,90,6.4,6.4,72,0.00,,---,0.00,VWS V13.01,2013-11-05 14:13:00,
2013-11-05 10:14:00,84.5,74.5,29.87,NNE,22,2.0,2.0,72,0.00,,---,0.00,VWS V13.01,2013-11-05 14:14:00,
2013-11-05 10:16:00,84.5,74.9,29.87,ESE,112,4.2,4.2,73,0.00,,---,0.00,VWS V13.01,2013-11-05 14:16:00,
2013-11-05 10:17:00,84.5,74.9,29.87,ESE,112,4.2,4.2,73,0.00,,---,0.00,VWS V13.01,2013-11-05 14:17:00,
2013-11-05 10:18:00,84.5,74.9,29.88,ENE,68,4.2,4.4,73,0.00,,---,0.00,VWS V13.01,2013-11-05 14:18:00,
2013-11-05 10:19:00,84.7,75.1,29.87,ENE,68,3.3,3.3,73,0.00,,---,0.00,VWS V13.01,2013-11-05 14:19:00,
2013-11-05 10:21:00,84.7,75.1,29.87,NE,45,0.0,0.0,73,0.00,,---,0.00,VWS V13.01,2013-11-05 14:21:00,
2013-11-05 10:22:00,84.7,75.1,29.87,SE,135,0.6,0.6,73,0.00,,---,0.00,VWS V13.01,2013-11-05 14:22:00,
2013-11-05 10:23:00,84.7,75.1,29.87,East,90,6.2,6.2,73,0.00,,---,0.00,VWS V13.01,2013-11-05 14:23:00,
2013-11-05 10:24:00,84.9,75.3,29.87,ENE,68,5.8,5.8,73,0.00,,---,0.00,VWS V13.01,2013-11-05 14:24:00,
2013-11-05 10:26:00,84.9,75.3,29.87,East,90,4.0,4.0,73,0.00,,---,0.00,VWS V13.01,2013-11-05 14:26:00,
2013-11-05 10:27:00,84.9,75.3,29.87,East,90,4.6,4.6,73,0.00,,---,0.00,VWS V13.01,2013-11-05 14:27:00,
2013-11-05 10:28:00,84.9,75.3,29.87,East,90,4.2,4.6,73,0.00,,---,0.00,VWS V13.01,2013-11-05 14:28:00,
2013-11-05 10:29:00,84.9,75.3,29.87,East,90,2.0,2.0,73,0.00,,---,0.00,VWS V13.01,2013-11-05 14:29:00,
2013-11-05 10:31:00,85.1,75.5,29.87,ENE,68,1.1,1.1,73,0.00,,---,0.00,VWS V13.01,2013-11-05 14:31:00,
2013-11-05 10:32:00,85.1,75.5,29.87,ENE,68,1.1,1.1,73,0.00,,---,0.00,VWS V13.01,2013-11-05 14:32:00,
2013-11-05 10:33:00,85.1,75.1,29.87,ENE,68,2.9,2.9,72,0.00,,---,0.00,VWS V13.01,2013-11-05 14:33:00,
2013-11-05 10:35:00,85.2,75.2,29.87,ESE,112,0.0,0.0,72,0.00,,---,0.00,VWS V13.01,2013-11-05 14:35:00,
2013-11-05 10:36:00,85.2,75.2,29.87,ENE,68,1.3,1.3,72,0.00,,---,0.00,VWS V13.01,2013-11-05 14:36:00,
2013-11-05 10:37:00,85.2,75.2,29.87,ENE,68,1.3,1.3,72,0.00,,---,0.00,VWS V13.01,2013-11-05 14:37:00,
2013-11-05 10:38:00,85.2,75.2,29.87,ENE,68,1.1,1.1,72,0.00,,---,0.00,VWS V13.01,2013-11-05 14:38:00,
2013-11-05 10:40:00,85.2,75.2,29.87,East,90,0.6,0.6,72,0.00,,---,0.00,VWS V13.01,2013-11-05 14:40:00,
2013-11-05 10:41:00,85.2,75.2,29.86,ESE,112,5.8,5.8,72,0.00,,---,0.00,VWS V13.01,2013-11-05 14:41:00,
2013-11-05 10:42:00,85.2,75.2,29.86,East,90,5.8,5.8,72,0.00,,---,0.00,VWS V13.01,2013-11-05 14:42:00,
2013-11-05 10:43:00,85.2,75.2,29.86,East,90,5.8,5.8,72,0.00,,---,0.00,VWS V13.01,2013-11-05 14:43:00,
2013-11-05 10:45:00,85.6,75.5,29.86,NE,45,4.2,4.2,72,0.00,,---,0.00,VWS V13.01,2013-11-05 14:45:00,
2013-11-05 10:46:00,85.6,75.5,29.86,ENE,68,4.0,4.0,72,0.00,,---,0.00,VWS V13.01,2013-11-05 14:46:00,
2013-11-05 10:47:00,85.6,75.5,29.86,ENE,68,4.0,4.0,72,0.00,,---,0.00,VWS V13.01,2013-11-05 14:47:00,
2013-11-05 10:48:00,85.6,75.5,29.86,ENE,68,4.0,4.0,72,0.00,,---,0.00,VWS V13.01,2013-11-05 14:48:00,
2013-11-05 10:49:00,85.6,75.1,29.86,ENE,68,6.7,6.7,71,0.00,,---,0.00,VWS V13.01,2013-11-05 14:49:00,
2013-11-05 10:50:00,85.8,75.3,29.86,ENE,68,1.5,1.5,71,0.00,,---,0.00,VWS V13.01,2013-11-05 14:50:00,
2013-11-05 10:51:00,85.8,75.3,29.87,ESE,112,5.3,5.3,71,0.00,,---,0.00,VWS V13.01,2013-11-05 14:51:00,
2013-11-05 10:52:00,85.8,75.3,29.87,ENE,68,5.3,5.3,71,0.00,,---,0.00,VWS V13.01,2013-11-05 14:52:00,
2013-11-05 10:53:00,85.8,75.3,29.87,ENE,68,5.3,5.3,71,0.00,,---,0.00,VWS V13.01,2013-11-05 14:53:00,
2013-11-05 10:54:00,85.8,75.3,29.86,ESE,112,4.4,4.4,71,0.00,,---,0.00,VWS V13.01,2013-11-05 14:54:00,
2013-11-05 10:55:00,85.8,75.3,29.86,ENE,68,7.8,7.8,71,0.00,,---,0.00,VWS V13.01,2013-11-05 14:55:00,
2013-11-05 10:56:00,85.8,75.3,29.86,East,90,0.8,0.8,71,0.00,,---,0.00,VWS V13.01,2013-11-05 14:56:00,
2013-11-05 10:57:00,85.8,75.3,29.86,ESE,112,1.1,1.1,71,0.00,,---,0.00,VWS V13.01,2013-11-05 14:57:00,
2013-11-05 10:58:00,85.8,75.3,29.86,ESE,112,1.1,1.1,71,0.00,,---,0.00,VWS V13.01,2013-11-05 14:58:00,
2013-11-05 10:59:00,86.1,75.6,29.86,ENE,68,2.9,2.9,71,0.00,,---,0.00,VWS V13.01,2013-11-05 14:59:00,
2013-11-05 11:00:00,86.1,75.6,29.86,East,90,2.4,2.4,71,0.00,,---,0.00,VWS V13.01,2013-11-05 15:00:00,
2013-11-05 11:01:00,86.1,75.2,29.87,East,90,3.5,3.5,70,0.00,,---,0.00,VWS V13.01,2013-11-05 15:01:00,
2013-11-05 11:02:00,86.3,75.4,29.86,ENE,68,6.0,6.0,70,0.00,,---,0.00,VWS V13.01,2013-11-05 15:02:00,
2013-11-05 11:03:00,86.3,75.4,29.86,ENE,68,6.0,6.0,70,0.00,,---,0.00,VWS V13.01,2013-11-05 15:03:00,
2013-11-05 11:04:00,86.3,75.4,29.86,ENE,68,10.7,10.7,70,0.00,,---,0.00,VWS V13.01,2013-11-05 15:04:00,
2013-11-05 11:05:00,86.5,76.0,29.86,ENE,68,4.9,4.9,71,0.00,,---,0.00,VWS V13.01,2013-11-05 15:05:00,
2013-11-05 11:06:00,86.5,76.0,29.86,ENE,68,10.2,10.2,71,0.00,,---,0.00,VWS V13.01,2013-11-05 15:06:00,
2013-11-05 11:07:00,86.5,75.6,29.86,ESE,112,5.1,5.1,70,0.00,,---,0.00,VWS V13.01,2013-11-05 15:07:00,
2013-11-05 11:08:00,86.5,75.6,29.86,ESE,112,5.1,5.1,70,0.00,,---,0.00,VWS V13.01,2013-11-05 15:08:00,
2013-11-05 11:09:00,86.5,75.6,29.86,ENE,68,7.6,7.6,70,0.00,,---,0.00,VWS V13.01,2013-11-05 15:09:00,
2013-11-05 11:11:00,86.7,75.8,29.86,East,90,6.7,6.7,70,0.00,,---,0.00,VWS V13.01,2013-11-05 15:11:00,
2013-11-05 11:12:00,86.7,75.8,29.86,ENE,68,5.3,5.3,70,0.00,,---,0.00,VWS V13.01,2013-11-05 15:12:00,
2013-11-05 11:13:00,86.7,75.8,29.86,ENE,68,5.3,5.3,70,0.00,,---,0.00,VWS V13.01,2013-11-05 15:13:00,
2013-11-05 11:14:00,86.7,75.8,29.86,ENE,68,4.4,4.4,70,0.00,,---,0.00,VWS V13.01,2013-11-05 15:14:00,
2013-11-05 11:16:00,86.7,75.8,29.86,ENE,68,5.5,5.5,70,0.00,,---,0.00,VWS V13.01,2013-11-05 15:16:00,
2013-11-05 11:18:00,86.9,75.9,29.85,East,90,8.2,8.2,70,0.00,,---,0.00,VWS V13.01,2013-11-05 15:18:00,
2013-11-05 11:19:00,86.9,75.9,29.85,East,90,4.9,4.9,70,0.00,,---,0.00,VWS V13.01,2013-11-05 15:19:00,
2013-11-05 11:21:00,87.0,76.0,29.85,ESE,112,6.9,7.3,70,0.00,,---,0.00,VWS V13.01,2013-11-05 15:21:00,
2013-11-05 11:23:00,87.0,76.0,29.85,ENE,68,10.5,10.5,70,0.00,,---,0.00,VWS V13.01,2013-11-05 15:23:00,
2013-11-05 11:24:00,87.0,76.0,29.85,NE,45,6.9,6.9,70,0.00,,---,0.00,VWS V13.01,2013-11-05 15:24:00,
2013-11-05 11:26:00,87.0,76.0,29.85,ESE,112,6.0,6.0,70,0.00,,---,0.00,VWS V13.01,2013-11-05 15:26:00,
2013-11-05 11:28:00,87.4,76.0,29.85,East,90,4.2,4.2,69,0.00,,---,0.00,VWS V13.01,2013-11-05 15:28:00,
2013-11-05 11:29:00,87.4,76.0,29.85,East,90,4.2,4.2,69,0.00,,---,0.00,VWS V13.01,2013-11-05 15:29:00,
2013-11-05 11:31:00,87.6,76.2,29.85,East,90,6.4,9.6,69,0.00,,---,0.00,VWS V13.01,2013-11-05 15:31:00,
2013-11-05 11:33:00,87.6,76.2,29.85,NE,45,2.2,2.2,69,0.00,,---,0.00,VWS V13.01,2013-11-05 15:33:00,
2013-11-05 11:34:00,87.6,76.2,29.85,NE,45,2.2,2.2,69,0.00,,---,0.00,VWS V13.01,2013-11-05 15:34:00,
2013-11-05 11:36:00,87.8,76.4,29.85,East,90,6.7,6.7,69,0.00,,---,0.00,VWS V13.01,2013-11-05 15:36:00,
2013-11-05 11:38:00,87.9,76.5,29.85,ENE,68,2.9,2.9,69,0.00,,---,0.00,VWS V13.01,2013-11-05 15:38:00,
2013-11-05 11:39:00,87.9,76.5,29.85,ENE,68,2.9,2.9,69,0.00,,---,0.00,VWS V13.01,2013-11-05 15:39:00,
2013-11-05 11:41:00,88.1,76.2,29.85,SE,135,8.2,8.2,68,0.00,,---,0.00,VWS V13.01,2013-11-05 15:41:00,
2013-11-05 11:42:00,88.1,76.2,29.85,SE,135,8.2,8.2,68,0.00,,---,0.00,VWS V13.01,2013-11-05 15:42:00,
2013-11-05 11:43:00,88.1,76.2,29.85,East,90,7.3,7.3,68,0.00,,---,0.00,VWS V13.01,2013-11-05 15:43:00,
2013-11-05 11:44:00,88.1,76.2,29.85,East,90,7.3,7.3,68,0.00,,---,0.00,VWS V13.01,2013-11-05 15:44:00,
2013-11-05 11:46:00,88.1,76.2,29.85,ENE,68,5.8,5.8,68,0.00,,---,0.00,VWS V13.01,2013-11-05 15:46:00,
2013-11-05 11:47:00,88.1,76.2,29.85,ENE,68,5.8,5.8,68,0.00,,---,0.00,VWS V13.01,2013-11-05 15:47:00,
2013-11-05 11:49:00,88.1,76.2,29.84,ENE,68,6.2,6.2,68,0.00,,---,0.00,VWS V13.01,2013-11-05 15:49:00,
2013-11-05 11:52:00,88.3,76.4,29.84,ENE,68,8.7,8.7,68,0.00,,---,0.00,VWS V13.01,2013-11-05 15:52:00,
2013-11-05 11:54:00,88.3,76.4,29.84,ENE,68,8.5,8.5,68,0.00,,---,0.00,VWS V13.01,2013-11-05 15:54:00,
2013-11-05 11:57:00,88.3,76.4,29.84,NE,45,8.0,8.0,68,0.00,,---,0.00,VWS V13.01,2013-11-05 15:57:00,
2013-11-05 11:59:00,88.3,76.4,29.84,ENE,68,4.4,4.4,68,0.00,,---,0.00,VWS V13.01,2013-11-05 15:59:00,
2013-11-05 12:02:00,88.3,76.4,29.84,East,90,6.9,6.9,68,0.00,,---,0.00,VWS V13.01,2013-11-05 16:02:00,
2013-11-05 12:04:00,88.3,76.4,29.84,East,90,9.6,9.6,68,0.00,,---,0.00,VWS V13.01,2013-11-05 16:04:00,
2013-11-05 12:07:00,88.5,76.2,29.84,ESE,112,8.0,8.0,67,0.00,,---,0.00,VWS V13.01,2013-11-05 16:07:00,
2013-11-05 12:09:00,88.5,76.6,29.83,East,90,6.9,6.9,68,0.00,,---,0.00,VWS V13.01,2013-11-05 16:09:00,
2013-11-05 12:12:00,88.7,76.8,29.83,ESE,112,0.8,0.8,68,0.00,,---,0.00,VWS V13.01,2013-11-05 16:12:00,
2013-11-05 12:14:00,88.7,76.3,29.84,East,90,3.8,3.8,67,0.00,,---,0.00,VWS V13.01,2013-11-05 16:14:00,
2013-11-05 12:15:00,88.7,76.3,29.83,NE,45,2.4,2.4,67,0.00,,---,0.00,VWS V13.01,2013-11-05 16:15:00,
2013-11-05 12:17:00,88.8,76.4,29.84,SE,135,0.0,0.0,67,0.00,,---,0.00,VWS V13.01,2013-11-05 16:17:00,
2013-11-05 12:19:00,88.8,76.9,29.83,NE,45,0.0,0.0,68,0.00,,---,0.00,VWS V13.01,2013-11-05 16:19:00,
2013-11-05 12:20:00,88.8,76.4,29.83,East,90,6.0,6.0,67,0.00,,---,0.00,VWS V13.01,2013-11-05 16:20:00,
2013-11-05 12:22:00,89.2,76.8,29.83,East,90,5.3,5.3,67,0.00,,---,0.00,VWS V13.01,2013-11-05 16:22:00,
2013-11-05 12:24:00,89.2,76.4,29.83,ENE,68,5.5,5.5,66,0.00,,---,0.00,VWS V13.01,2013-11-05 16:24:00,
2013-11-05 12:25:00,89.2,76.4,29.83,ENE,68,5.5,5.5,66,0.00,,---,0.00,VWS V13.01,2013-11-05 16:25:00,
2013-11-05 12:27:00,89.4,76.6,29.83,ENE,68,9.6,9.6,66,0.00,,---,0.00,VWS V13.01,2013-11-05 16:27:00,
2013-11-05 12:29:00,89.4,76.6,29.83,East,90,4.0,4.0,66,0.00,,---,0.00,VWS V13.01,2013-11-05 16:29:00,
2013-11-05 12:30:00,89.4,76.6,29.83,East,90,4.0,4.0,66,0.00,,---,0.00,VWS V13.01,2013-11-05 16:30:00,
2013-11-05 12:32:00,89.2,76.4,29.82,ESE,112,0.0,0.0,66,0.00,,---,0.00,VWS V13.01,2013-11-05 16:32:00,
2013-11-05 12:34:00,89.0,76.2,29.83,East,90,8.0,8.0,66,0.00,,---,0.00,VWS V13.01,2013-11-05 16:34:00,
2013-11-05 12:35:00,89.0,76.2,29.83,East,90,8.0,8.0,66,0.00,,---,0.00,VWS V13.01,2013-11-05 16:35:00,
2013-11-05 12:37:00,89.0,76.2,29.83,East,90,6.7,6.7,66,0.00,,---,0.00,VWS V13.01,2013-11-05 16:37:00,
2013-11-05 12:39:00,88.8,76.0,29.82,ESE,112,2.2,2.2,66,0.00,,---,0.00,VWS V13.01,2013-11-05 16:39:00,
2013-11-05 12:40:00,88.8,76.0,29.82,NE,45,3.3,3.3,66,0.00,,---,0.00,VWS V13.01,2013-11-05 16:40:00,
2013-11-05 12:41:00,88.8,76.0,29.82,NE,45,3.3,3.3,66,0.00,,---,0.00,VWS V13.01,2013-11-05 16:41:00,
2013-11-05 12:42:00,88.7,75.9,29.82,NE,45,4.9,4.9,66,0.00,,---,0.00,VWS V13.01,2013-11-05 16:42:00,
2013-11-05 12:44:00,89.0,76.2,29.82,ENE,68,4.4,4.4,66,0.00,,---,0.00,VWS V13.01,2013-11-05 16:44:00,
2013-11-05 12:45:00,89.2,76.8,29.82,NE,45,8.2,8.2,67,0.00,,---,0.00,VWS V13.01,2013-11-05 16:45:00,
2013-11-05 12:46:00,89.2,76.4,29.82,NE,45,6.7,6.7,66,0.00,,---,0.00,VWS V13.01,2013-11-05 16:46:00,
2013-11-05 12:47:00,89.2,76.4,29.82,NE,45,6.7,6.7,66,0.00,,---,0.00,VWS V13.01,2013-11-05 16:47:00,
2013-11-05 12:49:00,89.2,76.4,29.82,East,90,1.3,1.3,66,0.00,,---,0.00,VWS V13.01,2013-11-05 16:49:00,
2013-11-05 12:50:00,89.2,76.4,29.82,ENE,68,1.5,1.5,66,0.00,,---,0.00,VWS V13.01,2013-11-05 16:50:00,
2013-11-05 12:51:00,89.2,76.4,29.82,ENE,68,1.5,1.5,66,0.00,,---,0.00,VWS V13.01,2013-11-05 16:51:00,
2013-11-05 12:52:00,89.2,76.4,29.82,ENE,68,0.0,0.0,66,0.00,,---,0.00,VWS V13.01,2013-11-05 16:52:00,
2013-11-05 12:53:00,89.2,76.4,29.82,ENE,68,0.0,0.0,66,0.00,,---,0.00,VWS V13.01,2013-11-05 16:53:00,
2013-11-05 12:54:00,89.0,76.2,29.82,East,90,1.5,1.5,66,0.00,,---,0.00,VWS V13.01,2013-11-05 16:54:00,
2013-11-05 12:56:00,89.2,76.4,29.82,ENE,68,1.7,1.7,66,0.00,,---,0.00,VWS V13.01,2013-11-05 16:56:00,
2013-11-05 12:57:00,89.2,76.4,29.82,East,90,4.6,4.6,66,0.00,,---,0.00,VWS V13.01,2013-11-05 16:57:00,
2013-11-05 12:58:00,89.2,76.4,29.82,East,90,4.6,4.6,66,0.00,,---,0.00,VWS V13.01,2013-11-05 16:58:00,
2013-11-05 12:59:00,89.2,76.4,29.82,NE,45,1.1,1.1,66,0.00,,---,0.00,VWS V13.01,2013-11-05 16:59:00,
2013-11-05 13:01:00,89.2,76.4,29.82,SE,135,1.3,1.3,66,0.00,,---,0.00,VWS V13.01,2013-11-05 17:01:00,
2013-11-05 13:02:00,89.2,76.4,29.82,ESE,112,3.1,5.8,66,0.00,,---,0.00,VWS V13.01,2013-11-05 17:02:00,
2013-11-05 13:03:00,89.2,76.4,29.82,ESE,112,3.1,3.1,66,0.00,,---,0.00,VWS V13.01,2013-11-05 17:03:00,
2013-11-05 13:04:00,89.2,76.4,29.82,South,180,8.0,8.0,66,0.00,,---,0.00,VWS V13.01,2013-11-05 17:04:00,
2013-11-05 13:06:00,89.0,75.7,29.82,SE,135,3.8,3.8,65,0.00,,---,0.00,VWS V13.01,2013-11-05 17:06:00,
2013-11-05 13:07:00,88.8,75.5,29.82,South,180,8.7,8.7,65,0.00,,---,0.00,VWS V13.01,2013-11-05 17:07:00,
2013-11-05 13:08:00,88.8,75.5,29.82,SSE,158,5.3,5.3,65,0.00,,---,0.00,VWS V13.01,2013-11-05 17:08:00,
2013-11-05 13:09:00,88.5,74.8,29.82,SSE,158,5.3,5.3,64,0.00,,---,0.00,VWS V13.01,2013-11-05 17:09:00,
2013-11-05 13:11:00,88.5,74.8,29.82,South,180,7.3,7.3,64,0.00,,---,0.00,VWS V13.01,2013-11-05 17:11:00,
2013-11-05 13:12:00,88.3,75.1,29.82,SSE,158,3.5,3.5,65,0.00,,---,0.00,VWS V13.01,2013-11-05 17:12:00,
2013-11-05 13:13:00,88.1,74.9,29.82,SSE,158,2.0,2.0,65,0.00,,---,0.00,VWS V13.01,2013-11-05 17:13:00,
2013-11-05 13:14:00,87.8,74.6,29.82,South,180,4.0,4.0,65,0.00,,---,0.00,VWS V13.01,2013-11-05 17:14:00,
2013-11-05 13:16:00,87.6,74.4,29.82,South,180,6.9,6.9,65,0.00,,---,0.00,VWS V13.01,2013-11-05 17:16:00,
2013-11-05 13:17:00,87.6,74.8,29.82,SE,135,5.3,5.3,66,0.00,,---,0.00,VWS V13.01,2013-11-05 17:17:00,
2013-11-05 13:18:00,87.4,74.7,29.82,SSE,158,0.0,0.0,66,0.00,,---,0.00,VWS V13.01,2013-11-05 17:18:00,
2013-11-05 13:19:00,87.0,74.7,29.82,SSE,158,7.3,7.3,67,0.00,,---,0.00,VWS V13.01,2013-11-05 17:19:00,
2013-11-05 13:21:00,86.5,74.2,29.83,South,180,3.8,3.8,67,0.00,,---,0.00,VWS V13.01,2013-11-05 17:21:00,
2013-11-05 13:22:00,86.5,74.2,29.83,South,180,3.8,3.8,67,0.00,,---,0.00,VWS V13.01,2013-11-05 17:22:00,
2013-11-05 13:23:00,86.3,74.1,29.82,South,180,11.8,11.8,67,0.00,,---,0.00,VWS V13.01,2013-11-05 17:23:00,
2013-11-05 13:24:00,85.8,74.0,29.82,SSW,202,5.5,5.5,68,0.00,,---,0.00,VWS V13.01,2013-11-05 17:24:00,
2013-11-05 13:25:00,85.8,74.0,29.82,SSW,202,5.5,5.5,68,0.00,,---,0.00,VWS V13.01,2013-11-05 17:25:00,
2013-11-05 13:26:00,85.6,73.8,29.82,South,180,10.5,10.5,68,0.00,,---,0.00,VWS V13.01,2013-11-05 17:26:00,
2013-11-05 13:27:00,85.6,73.8,29.82,South,180,10.5,10.5,68,0.00,,---,0.00,VWS V13.01,2013-11-05 17:27:00,
2013-11-05 13:28:00,85.1,74.2,29.82,ESE,112,4.2,4.2,70,0.02,,---,0.02,VWS V13.01,2013-11-05 17:28:00,
2013-11-05 13:29:00,84.7,74.3,29.82,ENE,68,0.0,0.0,71,0.04,,---,0.04,VWS V13.01,2013-11-05 17:29:00,
2013-11-05 13:30:00,84.7,74.3,29.82,ENE,68,0.0,0.0,71,0.04,,---,0.04,VWS V13.01,2013-11-05 17:30:00,
2013-11-05 13:32:00,84.0,74.0,29.82,ESE,112,1.5,1.5,72,0.08,,---,0.08,VWS V13.01,2013-11-05 17:32:00,
2013-11-05 13:33:00,83.4,74.2,29.82,SE,135,1.3,1.3,74,0.14,,---,0.14,VWS V13.01,2013-11-05 17:33:00,
2013-11-05 13:34:00,83.1,74.0,29.82,SSE,158,6.0,6.0,74,0.16,,---,0.17,VWS V13.01,2013-11-05 17:34:00,
2013-11-05 13:35:00,83.1,74.0,29.82,SSE,158,6.0,6.0,74,0.16,,---,0.17,VWS V13.01,2013-11-05 17:35:00,
2013-11-05 13:37:00,82.5,73.8,29.82,ESE,112,5.8,5.8,75,0.20,,---,0.20,VWS V13.01,2013-11-05 17:37:00,
2013-11-05 13:38:00,82.0,73.3,29.81,SE,135,7.1,7.1,75,0.24,,---,0.24,VWS V13.01,2013-11-05 17:38:00,
2013-11-05 13:40:00,81.6,73.3,29.81,SE,135,2.2,2.2,76,0.26,,---,0.27,VWS V13.01,2013-11-05 17:40:00,
2013-11-05 13:42:00,81.3,73.0,29.81,SE,135,3.3,3.3,76,0.28,,---,0.29,VWS V13.01,2013-11-05 17:42:00,
2013-11-05 13:43:00,81.1,73.2,29.81,SSE,158,6.0,6.0,77,0.30,,---,0.31,VWS V13.01,2013-11-05 17:43:00,
2013-11-05 13:45:00,80.9,73.0,29.81,SE,135,2.9,2.9,77,0.30,,---,0.31,VWS V13.01,2013-11-05 17:45:00,
2013-11-05 13:47:00,80.7,72.8,29.81,SE,135,0.0,0.0,77,0.30,,---,0.31,VWS V13.01,2013-11-05 17:47:00,
2013-11-05 13:49:00,80.6,73.1,29.81,SE,135,0.6,0.6,78,0.30,,---,0.31,VWS V13.01,2013-11-05 17:49:00,
2013-11-05 13:50:00,80.6,73.1,29.81,SE,135,0.0,0.0,78,0.30,,---,0.31,VWS V13.01,2013-11-05 17:50:00,
2013-11-05 13:52:00,80.7,73.2,29.81,SSE,158,0.0,0.0,78,0.30,,---,0.31,VWS V13.01,2013-11-05 17:52:00,
2013-11-05 13:53:00,80.7,73.2,29.81,SE,135,0.0,0.0,78,0.30,,---,0.31,VWS V13.01,2013-11-05 17:53:00,
2013-11-05 13:54:00,80.7,73.6,29.80,SSW,202,1.3,1.3,79,0.30,,---,0.31,VWS V13.01,2013-11-05 17:54:00,
2013-11-05 13:55:00,80.7,73.6,29.80,SSW,202,1.3,1.3,79,0.30,,---,0.31,VWS V13.01,2013-11-05 17:55:00,
2013-11-05 13:57:00,80.9,73.8,29.80,South,180,4.2,4.2,79,0.30,,---,0.31,VWS V13.01,2013-11-05 17:57:00,
2013-11-05 13:58:00,81.1,73.6,29.80,South,180,0.0,0.0,78,0.30,,---,0.31,VWS V13.01,2013-11-05 17:58:00,
2013-11-05 13:59:00,81.3,73.8,29.80,SW,225,2.0,2.0,78,0.30,,---,0.31,VWS V13.01,2013-11-05 17:59:00,
2013-11-05 14:00:00,81.3,73.8,29.80,SW,225,2.0,2.0,78,0.30,,---,0.31,VWS V13.01,2013-11-05 18:00:00,
2013-11-05 14:02:00,81.8,74.3,29.80,SSE,158,0.0,0.0,78,0.30,,---,0.31,VWS V13.01,2013-11-05 18:02:00,
2013-11-05 14:03:00,82.0,74.5,29.81,South,180,1.7,1.7,78,0.30,,---,0.31,VWS V13.01,2013-11-05 18:03:00,
2013-11-05 14:04:00,82.7,75.5,29.80,South,180,0.0,0.0,79,0.30,,---,0.31,VWS V13.01,2013-11-05 18:04:00,
2013-11-05 14:05:00,82.7,75.5,29.80,South,180,0.0,0.0,79,0.30,,---,0.31,VWS V13.01,2013-11-05 18:05:00,
2013-11-05 14:07:00,83.6,76.4,29.80,South,180,0.0,0.0,79,0.30,,---,0.31,VWS V13.01,2013-11-05 18:07:00,
2013-11-05 14:08:00,83.6,76.4,29.80,South,180,0.0,0.0,79,0.30,,---,0.31,VWS V13.01,2013-11-05 18:08:00,
2013-11-05 14:09:00,84.2,77.0,29.80,South,180,0.0,0.0,79,0.30,,---,0.31,VWS V13.01,2013-11-05 18:09:00,
2013-11-05 14:10:00,84.2,77.0,29.80,South,180,0.0,0.0,79,0.30,,---,0.31,VWS V13.01,2013-11-05 18:10:00,
2013-11-05 14:12:00,85.1,77.5,29.80,South,180,0.0,0.0,78,0.30,,---,0.31,VWS V13.01,2013-11-05 18:12:00,
2013-11-05 14:13:00,85.1,77.5,29.80,South,180,0.0,0.0,78,0.30,,---,0.31,VWS V13.01,2013-11-05 18:13:00,
2013-11-05 14:14:00,85.6,78.0,29.80,ESE,112,0.0,0.0,78,0.30,,---,0.31,VWS V13.01,2013-11-05 18:14:00,
2013-11-05 14:15:00,85.6,78.0,29.80,ESE,112,0.0,0.0,78,0.30,,---,0.31,VWS V13.01,2013-11-05 18:15:00,
2013-11-05 14:17:00,86.3,77.4,29.80,South,180,2.2,2.2,75,0.30,,---,0.31,VWS V13.01,2013-11-05 18:17:00,
2013-11-05 14:18:00,86.3,77.4,29.80,South,180,2.2,2.2,75,0.30,,---,0.31,VWS V13.01,2013-11-05 18:18:00,
2013-11-05 14:19:00,86.9,77.6,29.81,SSE,158,0.0,0.0,74,0.30,,---,0.31,VWS V13.01,2013-11-05 18:19:00,
2013-11-05 14:20:00,86.9,77.2,29.80,South,180,2.9,2.9,73,0.30,,---,0.31,VWS V13.01,2013-11-05 18:20:00,
2013-11-05 14:22:00,87.0,76.9,29.80,West,270,1.5,1.5,72,0.30,,---,0.31,VWS V13.01,2013-11-05 18:22:00,
2013-11-05 14:23:00,87.0,76.9,29.80,West,270,1.5,1.5,72,0.30,,---,0.31,VWS V13.01,2013-11-05 18:23:00,
2013-11-05 14:24:00,87.2,76.7,29.80,SSW,202,0.8,0.8,71,0.30,,---,0.31,VWS V13.01,2013-11-05 18:24:00,
2013-11-05 14:25:00,87.2,76.7,29.80,SE,135,0.0,0.0,71,0.28,,---,0.31,VWS V13.01,2013-11-05 18:25:00,
2013-11-05 14:28:00,87.2,76.7,29.80,SW,225,0.0,0.0,71,0.28,,---,0.31,VWS V13.01,2013-11-05 18:28:00,
2013-11-05 14:29:00,87.2,76.7,29.80,South,180,0.0,0.0,71,0.16,,---,0.31,VWS V13.01,2013-11-05 18:29:00,
2013-11-05 14:30:00,87.4,76.8,29.80,SE,135,0.0,0.0,71,0.16,,---,0.31,VWS V13.01,2013-11-05 18:30:00,
2013-11-05 14:33:00,87.6,77.0,29.80,SE,135,2.4,2.4,71,0.16,,---,0.31,VWS V13.01,2013-11-05 18:33:00,
2013-11-05 14:34:00,87.6,77.0,29.80,SSE,158,0.8,0.8,71,0.10,,---,0.31,VWS V13.01,2013-11-05 18:34:00,
2013-11-05 14:35:00,87.8,77.2,29.80,South,180,0.0,0.0,71,0.10,,---,0.31,VWS V13.01,2013-11-05 18:35:00,
2013-11-05 14:38:00,87.9,76.9,29.80,ENE,68,1.5,1.5,70,0.02,,---,0.31,VWS V13.01,2013-11-05 18:38:00,
2013-11-05 14:39:00,88.1,77.1,29.80,ESE,112,0.0,0.0,70,0.02,,---,0.31,VWS V13.01,2013-11-05 18:39:00,
2013-11-05 14:40:00,88.3,77.3,29.80,SSW,202,1.3,1.3,70,0.02,,---,0.31,VWS V13.01,2013-11-05 18:40:00,
2013-11-05 14:41:00,88.3,77.3,29.80,SSW,202,1.3,1.3,70,0.02,,---,0.31,VWS V13.01,2013-11-05 18:41:00,
2013-11-05 14:43:00,88.3,76.8,29.79,SE,135,0.0,0.0,69,0.00,,---,0.31,VWS V13.01,2013-11-05 18:43:00,
2013-11-05 14:45:00,88.5,77.0,29.80,ESE,112,0.0,0.0,69,0.00,,---,0.31,VWS V13.01,2013-11-05 18:45:00,
2013-11-05 14:46:00,88.7,77.2,29.80,SE,135,2.6,2.6,69,0.00,,---,0.31,VWS V13.01,2013-11-05 18:46:00,
2013-11-05 14:48:00,88.8,77.3,29.80,SSE,158,1.1,1.1,69,0.00,,---,0.31,VWS V13.01,2013-11-05 18:48:00,
2013-11-05 14:50:00,89.2,77.7,29.80,SE,135,0.0,0.0,69,0.00,,---,0.31,VWS V13.01,2013-11-05 18:50:00,
2013-11-05 14:51:00,89.4,77.9,29.80,ESE,112,0.0,0.0,69,0.00,,---,0.31,VWS V13.01,2013-11-05 18:51:00,
2013-11-05 14:53:00,89.4,77.4,29.79,SSE,158,0.0,0.0,68,0.00,,---,0.31,VWS V13.01,2013-11-05 18:53:00,
2013-11-05 14:55:00,89.9,77.5,29.79,SE,135,2.4,2.4,67,0.00,,---,0.31,VWS V13.01,2013-11-05 18:55:00,
2013-11-05 14:56:00,90.1,77.7,29.79,ESE,112,5.3,5.3,67,0.00,,---,0.31,VWS V13.01,2013-11-05 18:56:00,
2013-11-05 14:58:00,90.3,78.3,29.80,SSE,158,2.0,2.0,68,0.00,,---,0.31,VWS V13.01,2013-11-05 18:58:00,
2013-11-05 15:00:00,90.6,78.1,29.80,SE,135,2.0,2.0,67,0.00,,---,0.31,VWS V13.01,2013-11-05 19:00:00,
2013-11-05 15:01:00,90.8,77.9,29.79,South,180,0.0,0.0,66,0.00,,---,0.31,VWS V13.01,2013-11-05 19:01:00,
2013-11-05 15:03:00,91.0,78.1,29.79,ESE,112,0.0,0.0,66,0.00,,---,0.31,VWS V13.01,2013-11-05 19:03:00,
2013-11-05 15:05:00,91.2,78.3,29.79,ESE,112,0.0,0.0,66,0.00,,---,0.31,VWS V13.01,2013-11-05 19:05:00,
2013-11-05 15:06:00,91.2,78.3,29.79,NNE,22,0.0,0.0,66,0.00,,---,0.31,VWS V13.01,2013-11-05 19:06:00,
2013-11-05 15:08:00,91.5,78.1,29.79,SSE,158,3.1,3.1,65,0.00,,---,0.31,VWS V13.01,2013-11-05 19:08:00,
2013-11-05 15:09:00,91.7,78.3,29.80,SE,135,0.0,0.0,65,0.00,,---,0.31,VWS V13.01,2013-11-05 19:09:00,
2013-11-05 15:10:00,91.7,78.3,29.80,NE,45,0.0,0.0,65,0.00,,---,0.31,VWS V13.01,2013-11-05 19:10:00,
2013-11-05 15:11:00,91.7,78.3,29.80,NE,45,0.0,0.0,65,0.00,,---,0.31,VWS V13.01,2013-11-05 19:11:00,
2013-11-05 15:13:00,91.7,77.8,29.80,NE,45,4.4,4.4,64,0.00,,---,0.31,VWS V13.01,2013-11-05 19:13:00,
2013-11-05 15:14:00,91.7,77.8,29.80,NE,45,4.4,4.4,64,0.00,,---,0.31,VWS V13.01,2013-11-05 19:14:00,
2013-11-05 15:15:00,91.5,78.1,29.79,East,90,5.8,5.8,65,0.00,,---,0.31,VWS V13.01,2013-11-05 19:15:00,
2013-11-05 15:16:00,91.5,78.1,29.79,East,90,5.8,5.8,65,0.00,,---,0.31,VWS V13.01,2013-11-05 19:16:00,
2013-11-05 15:18:00,90.8,77.4,29.79,ENE,68,5.1,5.1,65,0.00,,---,0.31,VWS V13.01,2013-11-05 19:18:00,
2013-11-05 15:19:00,90.8,77.4,29.79,ENE,68,5.1,5.1,65,0.00,,---,0.31,VWS V13.01,2013-11-05 19:19:00,
2013-11-05 15:20:00,90.5,77.6,29.80,East,90,3.1,3.1,66,0.00,,---,0.31,VWS V13.01,2013-11-05 19:20:00,
2013-11-05 15:21:00,90.5,77.6,29.80,East,90,3.1,3.1,66,0.00,,---,0.31,VWS V13.01,2013-11-05 19:21:00,
2013-11-05 15:23:00,90.1,77.2,29.79,East,90,1.3,1.3,66,0.00,,---,0.31,VWS V13.01,2013-11-05 19:23:00,
2013-11-05 15:24:00,90.1,77.2,29.79,East,90,1.3,1.3,66,0.00,,---,0.31,VWS V13.01,2013-11-05 19:24:00,
2013-11-05 15:26:00,90.1,77.2,29.79,ESE,112,3.8,3.8,66,0.00,,---,0.31,VWS V13.01,2013-11-05 19:26:00,
2013-11-05 15:27:00,89.9,77.0,29.79,East,90,3.3,3.3,66,0.00,,---,0.31,VWS V13.01,2013-11-05 19:27:00,
2013-11-05 15:28:00,89.7,76.8,29.79,East,90,5.1,5.1,66,0.00,,---,0.31,VWS V13.01,2013-11-05 19:28:00,
2013-11-05 15:29:00,89.7,76.8,29.79,East,90,5.1,5.1,66,0.00,,---,0.31,VWS V13.01,2013-11-05 19:29:00,
2013-11-05 15:31:00,89.4,76.6,29.79,ESE,112,0.0,0.0,66,0.00,,---,0.31,VWS V13.01,2013-11-05 19:31:00,
2013-11-05 15:32:00,89.4,76.6,29.79,East,90,0.0,0.0,66,0.00,,---,0.31,VWS V13.01,2013-11-05 19:32:00,
2013-11-05 15:33:00,89.2,76.8,29.79,SE,135,1.3,1.3,67,0.00,,---,0.31,VWS V13.01,2013-11-05 19:33:00,
2013-11-05 15:34:00,89.2,76.8,29.79,SE,135,1.3,1.3,67,0.00,,---,0.31,VWS V13.01,2013-11-05 19:34:00,
2013-11-05 15:36:00,88.8,76.4,29.80,East,90,4.0,4.0,67,0.00,,---,0.31,VWS V13.01,2013-11-05 19:36:00,
2013-11-05 15:37:00,88.8,76.4,29.80,East,90,4.0,4.0,67,0.00,,---,0.31,VWS V13.01,2013-11-05 19:37:00,
2013-11-05 15:38:00,88.8,76.0,29.80,ENE,68,2.0,2.0,66,0.00,,---,0.31,VWS V13.01,2013-11-05 19:38:00,
2013-11-05 15:39:00,88.8,76.0,29.80,ENE,68,2.0,2.0,66,0.00,,---,0.31,VWS V13.01,2013-11-05 19:39:00,
2013-11-05 15:41:00,88.5,75.7,29.80,East,90,0.0,0.0,66,0.00,,---,0.31,VWS V13.01,2013-11-05 19:41:00,
2013-11-05 15:42:00,88.5,75.7,29.80,East,90,0.0,0.0,66,0.00,,---,0.31,VWS V13.01,2013-11-05 19:42:00,
2013-11-05 15:43:00,88.5,75.7,29.79,East,90,4.0,4.0,66,0.02,,---,0.33,VWS V13.01,2013-11-05 19:43:00,
2013-11-05 15:44:00,88.5,75.7,29.79,East,90,4.0,4.0,66,0.02,,---,0.33,VWS V13.01,2013-11-05 19:44:00,
2013-11-05 15:46:00,88.3,75.5,29.79,SE,135,3.5,3.5,66,0.02,,---,0.33,VWS V13.01,2013-11-05 19:46:00,
2013-11-05 15:47:00,88.3,75.5,29.79,East,90,2.0,2.0,66,0.02,,---,0.33,VWS V13.01,2013-11-05 19:47:00,
2013-11-05 15:48:00,88.1,75.3,29.79,ESE,112,0.0,0.0,66,0.02,,---,0.33,VWS V13.01,2013-11-05 19:48:00,
2013-11-05 15:49:00,88.1,75.3,29.79,ESE,112,0.0,0.0,66,0.02,,---,0.33,VWS V13.01,2013-11-05 19:49:00,
2013-11-05 15:51:00,87.9,74.7,29.80,ENE,68,3.3,3.3,65,0.02,,---,0.33,VWS V13.01,2013-11-05 19:51:00,
2013-11-05 15:52:00,87.8,74.6,29.79,ESE,112,3.1,3.1,65,0.02,,---,0.33,VWS V13.01,2013-11-05 19:52:00,
2013-11-05 15:53:00,87.6,74.4,29.79,East,90,2.0,2.0,65,0.02,,---,0.33,VWS V13.01,2013-11-05 19:53:00,
2013-11-05 15:54:00,87.6,74.4,29.79,East,90,2.0,2.0,65,0.02,,---,0.33,VWS V13.01,2013-11-05 19:54:00,
2013-11-05 15:56:00,87.6,74.4,29.79,ESE,112,2.6,2.6,65,0.02,,---,0.33,VWS V13.01,2013-11-05 19:56:00,
2013-11-05 15:57:00,87.6,74.4,29.79,ESE,112,2.6,2.6,65,0.02,,---,0.33,VWS V13.01,2013-11-05 19:57:00,
2013-11-05 15:58:00,87.6,74.4,29.79,SE,135,1.1,1.1,65,0.02,,---,0.33,VWS V13.01,2013-11-05 19:58:00,
2013-11-05 15:59:00,87.6,74.4,29.79,SE,135,1.1,1.1,65,0.02,,---,0.33,VWS V13.01,2013-11-05 19:59:00,
2013-11-05 16:01:00,87.6,74.4,29.79,East,90,0.0,0.0,65,0.02,,---,0.33,VWS V13.01,2013-11-05 20:01:00,
2013-11-05 16:02:00,87.6,74.4,29.79,East,90,0.0,0.0,65,0.02,,---,0.33,VWS V13.01,2013-11-05 20:02:00,
2013-11-05 16:03:00,87.6,74.4,29.79,East,90,0.6,0.6,65,0.02,,---,0.33,VWS V13.01,2013-11-05 20:03:00,
2013-11-05 16:04:00,87.4,74.2,29.79,SE,135,0.8,0.8,65,0.02,,---,0.33,VWS V13.01,2013-11-05 20:04:00,
2013-11-05 16:06:00,87.4,74.2,29.79,ESE,112,1.3,1.3,65,0.02,,---,0.33,VWS V13.01,2013-11-05 20:06:00,
2013-11-05 16:07:00,87.4,74.2,29.79,ENE,68,2.4,2.4,65,0.02,,---,0.33,VWS V13.01,2013-11-05 20:07:00,
2013-11-05 16:08:00,87.4,74.2,29.79,ENE,68,2.4,2.4,65,0.02,,---,0.33,VWS V13.01,2013-11-05 20:08:00,
2013-11-05 16:09:00,87.2,74.0,29.79,ESE,112,3.8,3.8,65,0.02,,---,0.33,VWS V13.01,2013-11-05 20:09:00,
2013-11-05 16:12:00,87.0,74.3,29.80,East,90,2.0,2.0,66,0.02,,---,0.33,VWS V13.01,2013-11-05 20:12:00,
2013-11-05 16:13:00,87.0,74.3,29.80,East,90,0.0,0.0,66,0.02,,---,0.33,VWS V13.01,2013-11-05 20:13:00,
2013-11-05 16:14:00,87.0,74.3,29.80,East,90,3.3,3.3,66,0.02,,---,0.33,VWS V13.01,2013-11-05 20:14:00,
2013-11-05 16:17:00,87.0,74.3,29.79,ENE,68,0.0,0.0,66,0.02,,---,0.33,VWS V13.01,2013-11-05 20:17:00,
2013-11-05 16:18:00,87.0,74.3,29.79,ENE,68,2.2,2.2,66,0.02,,---,0.33,VWS V13.01,2013-11-05 20:18:00,
2013-11-05 16:19:00,87.0,74.3,29.79,East,90,2.0,2.0,66,0.02,,---,0.33,VWS V13.01,2013-11-05 20:19:00,
2013-11-05 16:22:00,87.0,74.3,29.80,ENE,68,2.0,2.0,66,0.02,,---,0.33,VWS V13.01,2013-11-05 20:22:00,
2013-11-05 16:23:00,86.9,74.2,29.79,ENE,68,2.0,2.0,66,0.02,,---,0.33,VWS V13.01,2013-11-05 20:23:00,
2013-11-05 16:24:00,87.0,74.7,29.79,ESE,112,1.7,1.7,67,0.02,,---,0.33,VWS V13.01,2013-11-05 20:24:00,
2013-11-05 16:27:00,86.9,74.6,29.79,ESE,112,2.0,2.0,67,0.02,,---,0.33,VWS V13.01,2013-11-05 20:27:00,
2013-11-05 16:28:00,86.9,74.6,29.79,East,90,4.6,4.6,67,0.02,,---,0.33,VWS V13.01,2013-11-05 20:28:00,
2013-11-05 16:29:00,86.9,74.6,29.79,ESE,112,3.8,3.8,67,0.02,,---,0.33,VWS V13.01,2013-11-05 20:29:00,
2013-11-05 16:32:00,86.9,75.1,29.79,ESE,112,0.0,0.0,68,0.02,,---,0.33,VWS V13.01,2013-11-05 20:32:00,
2013-11-05 16:33:00,86.9,75.1,29.79,ESE,112,0.0,0.0,68,0.02,,---,0.33,VWS V13.01,2013-11-05 20:33:00,
2013-11-05 16:34:00,86.7,74.9,29.79,East,90,0.0,0.0,68,0.02,,---,0.33,VWS V13.01,2013-11-05 20:34:00,
2013-11-05 16:37:00,86.7,74.9,29.79,SE,135,0.0,0.0,68,0.02,,---,0.33,VWS V13.01,2013-11-05 20:37:00,
2013-11-05 16:38:00,86.7,74.9,29.79,SE,135,0.0,0.0,68,0.02,,---,0.33,VWS V13.01,2013-11-05 20:38:00,
2013-11-05 16:39:00,86.7,74.9,29.79,ESE,112,0.0,0.0,68,0.02,,---,0.33,VWS V13.01,2013-11-05 20:39:00,
2013-11-05 16:42:00,86.5,74.7,29.79,SE,135,0.0,0.0,68,0.00,,---,0.33,VWS V13.01,2013-11-05 20:42:00,
2013-11-05 16:43:00,86.5,74.7,29.79,SE,135,0.0,0.0,68,0.00,,---,0.33,VWS V13.01,2013-11-05 20:43:00,
2013-11-05 16:44:00,86.5,74.7,29.79,SE,135,0.0,0.0,68,0.00,,---,0.33,VWS V13.01,2013-11-05 20:44:00,
2013-11-05 16:47:00,86.5,74.7,29.79,East,90,1.3,1.3,68,0.00,,---,0.33,VWS V13.01,2013-11-05 20:47:00,
2013-11-05 16:48:00,86.5,74.7,29.79,East,90,1.3,1.3,68,0.00,,---,0.33,VWS V13.01,2013-11-05 20:48:00,
2013-11-05 16:49:00,86.5,74.7,29.79,ENE,68,0.0,0.0,68,0.00,,---,0.33,VWS V13.01,2013-11-05 20:49:00,
2013-11-05 16:52:00,86.3,74.5,29.79,NE,45,0.0,0.0,68,0.00,,---,0.33,VWS V13.01,2013-11-05 20:52:00,
2013-11-05 16:53:00,86.5,74.7,29.80,ENE,68,0.0,0.0,68,0.00,,---,0.33,VWS V13.01,2013-11-05 20:53:00,
2013-11-05 16:54:00,86.3,74.5,29.80,ENE,68,0.0,0.0,68,0.00,,---,0.33,VWS V13.01,2013-11-05 20:54:00,
2013-11-05 16:55:00,86.3,74.5,29.80,ENE,68,0.0,0.0,68,0.00,,---,0.33,VWS V13.01,2013-11-05 20:55:00,
2013-11-05 16:57:00,86.3,74.9,29.79,NE,45,1.1,1.1,69,0.00,,---,0.33,VWS V13.01,2013-11-05 20:57:00,
2013-11-05 16:58:00,86.3,74.9,29.79,ENE,68,2.4,2.4,69,0.00,,---,0.33,VWS V13.01,2013-11-05 20:58:00,
2013-11-05 16:59:00,86.3,74.9,29.79,ENE,68,0.0,0.0,69,0.00,,---,0.33,VWS V13.01,2013-11-05 20:59:00,
2013-11-05 17:00:00,86.3,74.9,29.79,ENE,68,0.0,0.0,69,0.00,,---,0.33,VWS V13.01,2013-11-05 21:00:00,
2013-11-05 17:02:00,86.3,74.5,29.79,ENE,68,0.0,0.0,68,0.00,,---,0.33,VWS V13.01,2013-11-05 21:02:00,
2013-11-05 17:03:00,86.1,74.3,29.80,ENE,68,2.2,2.2,68,0.00,,---,0.33,VWS V13.01,2013-11-05 21:03:00,
2013-11-05 17:04:00,86.3,74.5,29.80,ESE,112,0.8,0.8,68,0.00,,---,0.33,VWS V13.01,2013-11-05 21:04:00,
2013-11-05 17:05:00,86.3,74.5,29.80,ESE,112,0.8,0.8,68,0.00,,---,0.33,VWS V13.01,2013-11-05 21:05:00,
2013-11-05 17:07:00,86.3,74.9,29.80,ESE,112,0.0,0.0,69,0.00,,---,0.33,VWS V13.01,2013-11-05 21:07:00,
2013-11-05 17:08:00,86.1,74.8,29.80,ESE,112,0.0,0.0,69,0.00,,---,0.33,VWS V13.01,2013-11-05 21:08:00,
2013-11-05 17:09:00,86.1,74.8,29.80,ESE,112,0.0,0.0,69,0.00,,---,0.33,VWS V13.01,2013-11-05 21:09:00,
2013-11-05 17:10:00,86.1,74.8,29.80,ESE,112,0.0,0.0,69,0.00,,---,0.33,VWS V13.01,2013-11-05 21:10:00,
2013-11-05 17:12:00,86.1,74.8,29.80,East,90,0.0,0.0,69,0.00,,---,0.33,VWS V13.01,2013-11-05 21:12:00,
2013-11-05 17:13:00,86.1,74.8,29.80,SE,135,0.0,0.0,69,0.00,,---,0.33,VWS V13.01,2013-11-05 21:13:00,
2013-11-05 17:14:00,86.1,74.8,29.80,SE,135,0.0,0.0,69,0.00,,---,0.33,VWS V13.01,2013-11-05 21:14:00,
2013-11-05 17:15:00,86.1,74.8,29.80,WSW,248,0.0,0.0,69,0.00,,---,0.33,VWS V13.01,2013-11-05 21:15:00,
2013-11-05 17:18:00,86.0,74.7,29.81,SSW,202,1.5,1.5,69,0.00,,---,0.33,VWS V13.01,2013-11-05 21:18:00,
2013-11-05 17:19:00,85.8,74.5,29.81,WSW,248,0.0,0.0,69,0.00,,---,0.33,VWS V13.01,2013-11-05 21:19:00,
2013-11-05 17:20:00,85.8,74.5,29.81,WSW,248,0.0,0.0,69,0.00,,---,0.33,VWS V13.01,2013-11-05 21:20:00,
2013-11-05 17:23:00,85.6,74.3,29.81,North,0,0.0,0.0,69,0.00,,---,0.33,VWS V13.01,2013-11-05 21:23:00,
2013-11-05 17:24:00,85.6,74.3,29.81,SW,225,1.3,1.3,69,0.00,,---,0.33,VWS V13.01,2013-11-05 21:24:00,
2013-11-05 17:25:00,85.2,74.3,29.81,SSE,158,0.0,0.0,70,0.00,,---,0.33,VWS V13.01,2013-11-05 21:25:00,
2013-11-05 17:28:00,85.1,74.2,29.81,SSW,202,0.0,0.0,70,0.00,,---,0.33,VWS V13.01,2013-11-05 21:28:00,
2013-11-05 17:29:00,84.9,74.0,29.81,SW,225,0.0,0.0,70,0.00,,---,0.33,VWS V13.01,2013-11-05 21:29:00,
2013-11-05 17:30:00,84.9,74.0,29.81,West,270,1.7,1.7,70,0.00,,---,0.33,VWS V13.01,2013-11-05 21:30:00,
2013-11-05 17:33:00,84.7,73.8,29.81,WSW,248,2.2,2.2,70,0.00,,---,0.33,VWS V13.01,2013-11-05 21:33:00,
2013-11-05 17:34:00,84.7,73.8,29.80,SSE,158,0.0,0.0,70,0.00,,---,0.33,VWS V13.01,2013-11-05 21:34:00,
2013-11-05 17:35:00,84.5,74.1,29.81,WSW,248,1.5,1.5,71,0.00,,---,0.33,VWS V13.01,2013-11-05 21:35:00,
2013-11-05 17:38:00,84.3,73.9,29.81,WNW,292,2.0,2.0,71,0.00,,---,0.33,VWS V13.01,2013-11-05 21:38:00,
2013-11-05 17:39:00,84.3,73.9,29.81,West,270,0.0,2.0,71,0.00,,---,0.33,VWS V13.01,2013-11-05 21:39:00,
2013-11-05 17:40:00,84.2,73.8,29.81,SW,225,0.0,0.0,71,0.00,,---,0.33,VWS V13.01,2013-11-05 21:40:00,
2013-11-05 17:43:00,84.0,73.6,29.82,NNW,338,2.2,2.2,71,0.00,,---,0.33,VWS V13.01,2013-11-05 21:43:00,
2013-11-05 17:44:00,84.0,73.6,29.82,NNW,338,2.2,2.2,71,0.00,,---,0.33,VWS V13.01,2013-11-05 21:44:00,
2013-11-05 17:45:00,84.0,74.0,29.81,West,270,1.3,1.3,72,0.00,,---,0.33,VWS V13.01,2013-11-05 21:45:00,
2013-11-05 17:48:00,83.8,73.8,29.81,NW,315,0.0,0.0,72,0.00,,---,0.33,VWS V13.01,2013-11-05 21:48:00,
2013-11-05 17:49:00,83.8,73.8,29.81,NW,315,0.0,0.0,72,0.00,,---,0.33,VWS V13.01,2013-11-05 21:49:00,
2013-11-05 17:50:00,83.6,73.2,29.82,WNW,292,0.0,0.0,71,0.00,,---,0.33,VWS V13.01,2013-11-05 21:50:00,
2013-11-05 17:51:00,83.6,73.2,29.82,WNW,292,0.0,0.0,71,0.00,,---,0.33,VWS V13.01,2013-11-05 21:51:00,
2013-11-05 17:53:00,83.4,73.4,29.82,WSW,248,0.0,0.0,72,0.00,,---,0.33,VWS V13.01,2013-11-05 21:53:00,
2013-11-05 17:54:00,83.4,73.4,29.82,WSW,248,0.0,0.0,72,0.00,,---,0.33,VWS V13.01,2013-11-05 21:54:00,
2013-11-05 17:55:00,83.4,73.4,29.82,West,270,0.0,0.0,72,0.00,,---,0.33,VWS V13.01,2013-11-05 21:55:00,
2013-11-05 17:56:00,83.4,73.4,29.81,WSW,248,0.0,0.0,72,0.00,,---,0.33,VWS V13.01,2013-11-05 21:56:00,
2013-11-05 17:58:00,83.4,73.4,29.81,WSW,248,2.0,2.0,72,0.00,,---,0.33,VWS V13.01,2013-11-05 21:58:00,
2013-11-05 17:59:00,83.4,73.4,29.81,WSW,248,2.0,2.0,72,0.00,,---,0.33,VWS V13.01,2013-11-05 21:59:00,
2013-11-05 18:00:00,83.4,73.4,29.81,WSW,248,1.5,1.5,72,0.00,,---,0.33,VWS V13.01,2013-11-05 22:00:00,
2013-11-05 18:01:00,83.4,73.4,29.81,NW,315,0.0,0.0,72,0.00,,---,0.33,VWS V13.01,2013-11-05 22:01:00,
2013-11-05 18:04:00,83.4,73.4,29.82,NW,315,2.0,2.0,72,0.00,,---,0.33,VWS V13.01,2013-11-05 22:04:00,
2013-11-05 18:05:00,83.4,73.4,29.82,West,270,2.0,2.0,72,0.00,,---,0.33,VWS V13.01,2013-11-05 22:05:00,
2013-11-05 18:06:00,83.3,73.3,29.82,WNW,292,2.2,2.2,72,0.00,,---,0.33,VWS V13.01,2013-11-05 22:06:00,
2013-11-05 18:09:00,83.3,73.3,29.82,WNW,292,0.0,0.0,72,0.00,,---,0.33,VWS V13.01,2013-11-05 22:09:00,
2013-11-05 18:10:00,83.1,73.1,29.82,WSW,248,0.0,0.0,72,0.00,,---,0.33,VWS V13.01,2013-11-05 22:10:00,
2013-11-05 18:11:00,83.1,73.1,29.82,WNW,292,1.5,1.5,72,0.00,,---,0.33,VWS V13.01,2013-11-05 22:11:00,
2013-11-05 18:14:00,83.1,73.1,29.82,NW,315,2.6,2.6,72,0.00,,---,0.33,VWS V13.01,2013-11-05 22:14:00,
2013-11-05 18:15:00,83.1,73.1,29.82,West,270,0.0,0.0,72,0.00,,---,0.33,VWS V13.01,2013-11-05 22:15:00,
2013-11-05 18:16:00,83.1,73.1,29.82,West,270,0.0,0.0,72,0.00,,---,0.33,VWS V13.01,2013-11-05 22:16:00,
2013-11-05 18:19:00,83.1,73.1,29.82,SW,225,0.0,0.0,72,0.00,,---,0.33,VWS V13.01,2013-11-05 22:19:00,
2013-11-05 18:20:00,82.9,72.9,29.82,West,270,0.0,0.0,72,0.00,,---,0.33,VWS V13.01,2013-11-05 22:20:00,
2013-11-05 18:21:00,82.9,72.9,29.82,West,270,0.0,0.0,72,0.00,,---,0.33,VWS V13.01,2013-11-05 22:21:00,
2013-11-05 18:24:00,82.9,72.9,29.82,SW,225,1.3,1.3,72,0.00,,---,0.33,VWS V13.01,2013-11-05 22:24:00,
2013-11-05 18:25:00,82.9,72.9,29.82,South,180,0.0,0.0,72,0.00,,---,0.33,VWS V13.01,2013-11-05 22:25:00,
2013-11-05 18:26:00,82.9,72.9,29.82,SW,225,0.0,0.0,72,0.00,,---,0.33,VWS V13.01,2013-11-05 22:26:00,
2013-11-05 18:27:00,82.9,72.9,29.82,SW,225,0.0,0.0,72,0.00,,---,0.33,VWS V13.01,2013-11-05 22:27:00,
2013-11-05 18:29:00,82.9,72.9,29.81,SSW,202,0.0,0.0,72,0.00,,---,0.33,VWS V13.01,2013-11-05 22:29:00,
2013-11-05 18:30:00,82.9,72.9,29.81,SSW,202,0.0,0.0,72,0.00,,---,0.33,VWS V13.01,2013-11-05 22:30:00,
2013-11-05 18:31:00,82.9,72.9,29.82,SSW,202,0.6,0.6,72,0.00,,---,0.33,VWS V13.01,2013-11-05 22:31:00,
2013-11-05 18:32:00,82.9,72.9,29.82,SSW,202,0.6,0.6,72,0.00,,---,0.33,VWS V13.01,2013-11-05 22:32:00,
2013-11-05 18:34:00,82.9,72.9,29.82,South,180,1.5,1.5,72,0.00,,---,0.33,VWS V13.01,2013-11-05 22:34:00,
2013-11-05 18:35:00,82.9,72.9,29.82,South,180,0.0,0.0,72,0.00,,---,0.33,VWS V13.01,2013-11-05 22:35:00,
2013-11-05 18:36:00,82.9,72.9,29.82,SSW,202,0.0,0.0,72,0.00,,---,0.33,VWS V13.01,2013-11-05 22:36:00,
2013-11-05 18:37:00,82.9,72.9,29.82,SSW,202,0.0,0.0,72,0.00,,---,0.33,VWS V13.01,2013-11-05 22:37:00,
2013-11-05 18:39:00,82.7,73.2,29.82,SSW,202,2.2,2.2,73,0.00,,---,0.33,VWS V13.01,2013-11-05 22:39:00,
2013-11-05 18:40:00,82.7,73.2,29.81,South,180,0.0,0.0,73,0.00,,---,0.33,VWS V13.01,2013-11-05 22:40:00,
2013-11-05 18:41:00,82.7,73.2,29.81,WSW,248,1.5,1.5,73,0.00,,---,0.33,VWS V13.01,2013-11-05 22:41:00,
2013-11-05 18:42:00,82.7,73.2,29.81,WSW,248,1.5,1.5,73,0.00,,---,0.33,VWS V13.01,2013-11-05 22:42:00,
2013-11-05 18:44:00,82.7,73.2,29.81,WSW,248,0.0,0.0,73,0.00,,---,0.33,VWS V13.01,2013-11-05 22:44:00,
2013-11-05 18:45:00,82.7,73.2,29.81,West,270,0.8,0.8,73,0.00,,---,0.33,VWS V13.01,2013-11-05 22:45:00,
2013-11-05 18:46:00,82.7,73.2,29.81,West,270,0.8,0.8,73,0.00,,---,0.33,VWS V13.01,2013-11-05 22:46:00,
2013-11-05 18:47:00,82.7,73.2,29.82,South,180,1.3,1.3,73,0.00,,---,0.33,VWS V13.01,2013-11-05 22:47:00,
2013-11-05 18:49:00,82.5,73.0,29.81,WSW,248,0.0,0.0,73,0.00,,---,0.33,VWS V13.01,2013-11-05 22:49:00,
2013-11-05 18:50:00,82.5,73.0,29.81,WSW,248,0.0,0.0,73,0.00,,---,0.33,VWS V13.01,2013-11-05 22:50:00,
2013-11-05 18:51:00,82.5,73.0,29.81,WSW,248,0.0,0.0,73,0.00,,---,0.33,VWS V13.01,2013-11-05 22:51:00,
2013-11-05 18:52:00,82.5,73.4,29.81,WSW,248,0.0,0.0,74,0.00,,---,0.33,VWS V13.01,2013-11-05 22:52:00,
2013-11-05 18:54:00,82.5,73.4,29.81,SSW,202,0.0,0.0,74,0.00,,---,0.33,VWS V13.01,2013-11-05 22:54:00,
2013-11-05 18:55:00,82.5,73.4,29.81,SSW,202,0.0,0.0,74,0.00,,---,0.33,VWS V13.01,2013-11-05 22:55:00,
2013-11-05 18:56:00,82.5,73.4,29.81,SW,225,0.0,0.0,74,0.00,,---,0.33,VWS V13.01,2013-11-05 22:56:00,
2013-11-05 18:57:00,82.5,73.4,29.81,SW,225,0.0,0.0,74,0.00,,---,0.33,VWS V13.01,2013-11-05 22:57:00,
2013-11-05 18:59:00,82.5,73.4,29.82,SW,225,0.0,0.0,74,0.00,,---,0.33,VWS V13.01,2013-11-05 22:59:00,
2013-11-05 19:00:00,82.5,73.4,29.82,WSW,248,0.0,0.0,74,0.00,,---,0.33,VWS V13.01,2013-11-05 23:00:00,
2013-11-05 19:01:00,82.5,73.4,29.82,WNW,292,0.0,0.0,74,0.00,,---,0.33,VWS V13.01,2013-11-05 23:01:00,
2013-11-05 19:02:00,82.5,73.4,29.82,WNW,292,0.0,0.0,74,0.00,,---,0.33,VWS V13.01,2013-11-05 23:02:00,
2013-11-05 19:04:00,82.5,73.4,29.82,SSW,202,0.0,0.0,74,0.00,,---,0.33,VWS V13.01,2013-11-05 23:04:00,
2013-11-05 19:05:00,82.5,73.4,29.82,WNW,292,0.0,0.0,74,0.00,,---,0.33,VWS V13.01,2013-11-05 23:05:00,
2013-11-05 19:07:00,82.5,73.4,29.82,SSE,158,0.0,0.0,74,0.00,,---,0.33,VWS V13.01,2013-11-05 23:07:00,
2013-11-05 19:09:00,82.5,73.8,29.82,SSW,202,0.0,0.0,75,0.00,,---,0.33,VWS V13.01,2013-11-05 23:09:00,
2013-11-05 19:10:00,82.5,73.8,29.82,SSW,202,0.0,0.0,75,0.00,,---,0.33,VWS V13.01,2013-11-05 23:10:00,
2013-11-05 19:12:00,82.4,73.7,29.82,SSE,158,0.0,0.0,75,0.00,,---,0.33,VWS V13.01,2013-11-05 23:12:00,
2013-11-05 19:14:00,82.4,73.7,29.82,West,270,0.0,0.0,75,0.00,,---,0.33,VWS V13.01,2013-11-05 23:14:00,
2013-11-05 19:15:00,82.4,73.7,29.82,West,270,0.0,0.0,75,0.00,,---,0.33,VWS V13.01,2013-11-05 23:15:00,
2013-11-05 19:17:00,82.4,73.7,29.82,WNW,292,0.0,0.0,75,0.00,,---,0.33,VWS V13.01,2013-11-05 23:17:00,
2013-11-05 19:20:00,82.4,73.7,29.82,SSE,158,0.0,0.0,75,0.00,,---,0.33,VWS V13.01,2013-11-05 23:20:00,
2013-11-05 19:22:00,82.2,73.5,29.82,SW,225,0.0,0.0,75,0.00,,---,0.33,VWS V13.01,2013-11-05 23:22:00,
2013-11-05 19:23:00,82.2,73.5,29.82,SW,225,0.0,0.0,75,0.00,,---,0.33,VWS V13.01,2013-11-05 23:23:00,
2013-11-05 19:25:00,82.2,73.5,29.82,WSW,248,0.0,0.0,75,0.00,,---,0.33,VWS V13.01,2013-11-05 23:25:00,
2013-11-05 19:27:00,82.2,73.5,29.82,South,180,0.0,0.0,75,0.00,,---,0.33,VWS V13.01,2013-11-05 23:27:00,
2013-11-05 19:28:00,82.2,73.5,29.82,South,180,0.0,0.0,75,0.00,,---,0.33,VWS V13.01,2013-11-05 23:28:00,
2013-11-05 19:30:00,82.2,73.5,29.82,WSW,248,2.0,2.0,75,0.00,,---,0.33,VWS V13.01,2013-11-05 23:30:00,
2013-11-05 19:32:00,82.2,73.5,29.83,West,270,0.0,0.0,75,0.00,,---,0.33,VWS V13.01,2013-11-05 23:32:00,
2013-11-05 19:33:00,82.2,73.5,29.83,West,270,0.0,0.0,75,0.00,,---,0.33,VWS V13.01,2013-11-05 23:33:00,
2013-11-05 19:35:00,82.2,73.5,29.83,SW,225,0.0,0.0,75,0.00,,---,0.33,VWS V13.01,2013-11-05 23:35:00,
2013-11-05 19:38:00,82.2,73.5,29.83,South,180,0.0,0.0,75,0.00,,---,0.33,VWS V13.01,2013-11-05 23:38:00,
2013-11-05 19:40:00,82.2,73.5,29.83,SSE,158,0.0,0.0,75,0.00,,---,0.33,VWS V13.01,2013-11-05 23:40:00,
2013-11-05 19:43:00,82.2,73.5,29.83,South,180,0.0,0.0,75,0.00,,---,0.33,VWS V13.01,2013-11-05 23:43:00,
2013-11-05 19:45:00,82.2,73.5,29.83,SW,225,1.3,1.3,75,0.00,,---,0.33,VWS V13.01,2013-11-05 23:45:00,
2013-11-05 19:48:00,82.2,73.5,29.83,SSW,202,0.0,0.0,75,0.00,,---,0.33,VWS V13.01,2013-11-05 23:48:00,
2013-11-05 19:50:00,82.2,73.5,29.83,South,180,0.0,0.0,75,0.00,,---,0.33,VWS V13.01,2013-11-05 23:50:00,
2013-11-05 19:53:00,82.2,73.5,29.83,South,180,0.0,0.0,75,0.00,,---,0.33,VWS V13.01,2013-11-05 23:53:00,
2013-11-05 19:54:00,82.2,73.5,29.83,South,180,0.0,0.0,75,0.00,,---,0.33,VWS V13.01,2013-11-05 23:54:00,
2013-11-05 19:55:00,82.2,73.5,29.83,South,180,0.0,0.0,75,0.00,,---,0.33,VWS V13.01,2013-11-05 23:55:00,
2013-11-05 19:58:00,82.2,73.5,29.83,SE,135,0.0,0.0,75,0.00,,---,0.33,VWS V13.01,2013-11-05 23:58:00,
2013-11-05 19:59:00,82.2,73.5,29.83,SE,135,0.0,0.0,75,0.00,,---,0.33,VWS V13.01,2013-11-05 23:59:00,
2013-11-05 20:00:00,82.2,73.5,29.83,SSE,158,0.0,0.0,75,0.00,,---,0.33,VWS V13.01,2013-11-06 00:00:00,
2013-11-05 20:03:00,82.2,73.5,29.84,South,180,0.0,0.0,75,0.00,,---,0.33,VWS V13.01,2013-11-06 00:03:00,
2013-11-05 20:04:00,82.2,73.5,29.84,South,180,0.0,0.0,75,0.00,,---,0.33,VWS V13.01,2013-11-06 00:04:00,
2013-11-05 20:05:00,82.2,73.5,29.83,SSE,158,0.8,0.8,75,0.00,,---,0.33,VWS V13.01,2013-11-06 00:05:00,
2013-11-05 20:08:00,82.2,73.9,29.83,South,180,2.0,2.0,76,0.00,,---,0.33,VWS V13.01,2013-11-06 00:08:00,
2013-11-05 20:09:00,82.2,73.9,29.83,SE,135,0.0,0.0,76,0.00,,---,0.33,VWS V13.01,2013-11-06 00:09:00,
2013-11-05 20:10:00,82.2,73.9,29.83,SE,135,0.0,0.0,76,0.00,,---,0.33,VWS V13.01,2013-11-06 00:10:00,
2013-11-05 20:13:00,82.2,73.9,29.83,SE,135,0.0,0.0,76,0.00,,---,0.33,VWS V13.01,2013-11-06 00:13:00,
2013-11-05 20:14:00,82.2,73.9,29.83,SE,135,0.0,0.0,76,0.00,,---,0.33,VWS V13.01,2013-11-06 00:14:00,
2013-11-05 20:15:00,82.2,73.9,29.83,SSE,158,0.0,0.0,76,0.00,,---,0.33,VWS V13.01,2013-11-06 00:15:00,
2013-11-05 20:18:00,82.2,73.9,29.83,SE,135,0.0,0.0,76,0.00,,---,0.33,VWS V13.01,2013-11-06 00:18:00,
2013-11-05 20:19:00,82.2,73.9,29.83,SE,135,0.0,0.0,76,0.00,,---,0.33,VWS V13.01,2013-11-06 00:19:00,
2013-11-05 20:20:00,82.2,73.9,29.84,East,90,1.3,1.3,76,0.00,,---,0.33,VWS V13.01,2013-11-06 00:20:00,
2013-11-05 20:24:00,82.2,73.9,29.84,SSE,158,1.5,1.5,76,0.00,,---,0.33,VWS V13.01,2013-11-06 00:24:00,
2013-11-05 20:25:00,82.2,73.9,29.83,SE,135,1.5,1.5,76,0.00,,---,0.33,VWS V13.01,2013-11-06 00:25:00,
2013-11-05 20:26:00,82.2,73.9,29.83,SE,135,1.5,1.5,76,0.00,,---,0.33,VWS V13.01,2013-11-06 00:26:00,
2013-11-05 20:29:00,82.2,73.9,29.83,SE,135,0.0,0.0,76,0.00,,---,0.33,VWS V13.01,2013-11-06 00:29:00,
2013-11-05 20:30:00,82.2,73.9,29.83,SSE,158,0.0,0.0,76,0.00,,---,0.33,VWS V13.01,2013-11-06 00:30:00,
2013-11-05 20:31:00,82.2,73.9,29.83,SSE,158,0.0,0.0,76,0.00,,---,0.33,VWS V13.01,2013-11-06 00:31:00,
2013-11-05 20:34:00,82.2,73.9,29.83,SE,135,0.0,0.0,76,0.00,,---,0.33,VWS V13.01,2013-11-06 00:34:00,
2013-11-05 20:35:00,82.2,73.9,29.84,SE,135,0.0,0.0,76,0.00,,---,0.33,VWS V13.01,2013-11-06 00:35:00,
2013-11-05 20:36:00,82.2,73.9,29.84,SE,135,0.0,0.0,76,0.00,,---,0.33,VWS V13.01,2013-11-06 00:36:00,
2013-11-05 20:39:00,82.0,73.7,29.84,SE,135,0.0,2.0,76,0.00,,---,0.33,VWS V13.01,2013-11-06 00:39:00,
2013-11-05 20:40:00,82.0,73.7,29.84,South,180,0.0,0.0,76,0.00,,---,0.33,VWS V13.01,2013-11-06 00:40:00,
2013-11-05 20:41:00,82.0,73.7,29.84,South,180,0.0,0.0,76,0.00,,---,0.33,VWS V13.01,2013-11-06 00:41:00,
2013-11-05 20:44:00,82.0,73.7,29.84,ESE,112,2.0,2.0,76,0.00,,---,0.33,VWS V13.01,2013-11-06 00:44:00,
2013-11-05 20:45:00,82.0,73.7,29.84,ESE,112,2.0,2.0,76,0.00,,---,0.33,VWS V13.01,2013-11-06 00:45:00,
2013-11-05 20:46:00,82.0,73.7,29.84,SE,135,4.0,4.0,76,0.00,,---,0.33,VWS V13.01,2013-11-06 00:46:00,
2013-11-05 20:49:00,82.0,73.7,29.84,SSE,158,1.7,1.7,76,0.00,,---,0.33,VWS V13.01,2013-11-06 00:49:00,
2013-11-05 20:50:00,82.0,73.7,29.84,SSE,158,1.7,1.7,76,0.00,,---,0.33,VWS V13.01,2013-11-06 00:50:00,
2013-11-05 20:51:00,82.0,73.7,29.84,SE,135,0.0,0.0,76,0.00,,---,0.33,VWS V13.01,2013-11-06 00:51:00,
2013-11-05 20:54:00,82.0,73.7,29.84,South,180,1.1,1.1,76,0.00,,---,0.33,VWS V13.01,2013-11-06 00:54:00,
2013-11-05 20:55:00,82.0,73.7,29.84,South,180,1.1,1.1,76,0.00,,---,0.33,VWS V13.01,2013-11-06 00:55:00,
2013-11-05 20:56:00,82.0,73.7,29.84,SSE,158,2.0,2.0,76,0.00,,---,0.33,VWS V13.01,2013-11-06 00:56:00,
2013-11-05 20:59:00,82.0,73.7,29.84,South,180,0.0,0.0,76,0.00,,---,0.33,VWS V13.01,2013-11-06 00:59:00,
2013-11-05 21:00:00,82.0,73.7,29.84,South,180,0.0,0.0,76,0.00,,---,0.33,VWS V13.01,2013-11-06 01:00:00,
2013-11-05 21:01:00,82.0,73.7,29.84,SSE,158,1.5,1.5,76,0.00,,---,0.33,VWS V13.01,2013-11-06 01:01:00,
2013-11-05 21:05:00,82.0,73.7,29.84,SE,135,1.1,1.1,76,0.00,,---,0.33,VWS V13.01,2013-11-06 01:05:00,
2013-11-05 21:06:00,82.0,73.7,29.84,SE,135,2.2,2.2,76,0.00,,---,0.33,VWS V13.01,2013-11-06 01:06:00,
2013-11-05 21:10:00,81.8,73.5,29.84,SSE,158,0.0,0.0,76,0.00,,---,0.33,VWS V13.01,2013-11-06 01:10:00,
2013-11-05 21:11:00,81.8,73.5,29.85,South,180,0.6,0.6,76,0.00,,---,0.33,VWS V13.01,2013-11-06 01:11:00,
2013-11-05 21:15:00,81.6,73.3,29.84,SE,135,0.0,0.0,76,0.00,,---,0.33,VWS V13.01,2013-11-06 01:15:00,
2013-11-05 21:16:00,81.6,73.3,29.84,SE,135,0.0,0.0,76,0.00,,---,0.33,VWS V13.01,2013-11-06 01:16:00,
2013-11-05 21:20:00,81.6,73.3,29.85,SE,135,0.0,0.0,76,0.00,,---,0.33,VWS V13.01,2013-11-06 01:20:00,
2013-11-05 21:21:00,81.6,73.3,29.85,SE,135,0.0,0.0,76,0.00,,---,0.33,VWS V13.01,2013-11-06 01:21:00,
2013-11-05 21:22:00,81.6,73.3,29.85,SSE,158,0.0,0.0,76,0.00,,---,0.33,VWS V13.01,2013-11-06 01:22:00,
2013-11-05 21:25:00,81.6,73.3,29.85,North,0,0.0,0.0,76,0.00,,---,0.33,VWS V13.01,2013-11-06 01:25:00,
2013-11-05 21:26:00,81.6,73.3,29.85,North,0,0.0,0.0,76,0.00,,---,0.33,VWS V13.01,2013-11-06 01:26:00,
2013-11-05 21:27:00,81.6,73.3,29.85,SE,135,1.5,1.5,76,0.00,,---,0.33,VWS V13.01,2013-11-06 01:27:00,
2013-11-05 21:30:00,81.6,73.7,29.85,SSE,158,2.0,2.0,77,0.00,,---,0.33,VWS V13.01,2013-11-06 01:30:00,
2013-11-05 21:31:00,81.6,73.7,29.85,SSE,158,2.0,2.0,77,0.00,,---,0.33,VWS V13.01,2013-11-06 01:31:00,
2013-11-05 21:32:00,81.6,73.7,29.85,SSE,158,0.0,0.0,77,0.00,,---,0.33,VWS V13.01,2013-11-06 01:32:00,
2013-11-05 21:35:00,81.6,73.7,29.85,South,180,0.0,0.0,77,0.00,,---,0.33,VWS V13.01,2013-11-06 01:35:00,
2013-11-05 21:36:00,81.6,73.7,29.85,South,180,0.0,0.0,77,0.00,,---,0.33,VWS V13.01,2013-11-06 01:36:00,
2013-11-05 21:37:00,81.6,73.7,29.86,North,0,0.0,0.0,77,0.00,,---,0.33,VWS V13.01,2013-11-06 01:37:00,
2013-11-05 21:40:00,81.6,73.7,29.85,SSE,158,0.0,0.0,77,0.00,,---,0.33,VWS V13.01,2013-11-06 01:40:00,
2013-11-05 21:41:00,81.6,73.7,29.85,SSE,158,0.0,0.0,77,0.00,,---,0.33,VWS V13.01,2013-11-06 01:41:00,
2013-11-05 21:42:00,81.6,73.7,29.86,SE,135,0.0,0.0,77,0.00,,---,0.33,VWS V13.01,2013-11-06 01:42:00,
2013-11-05 21:46:00,81.6,73.7,29.86,SSW,202,0.0,0.0,77,0.00,,---,0.33,VWS V13.01,2013-11-06 01:46:00,
2013-11-05 21:47:00,81.6,73.7,29.86,SSW,202,0.0,0.0,77,0.00,,---,0.33,VWS V13.01,2013-11-06 01:47:00,
2013-11-05 21:51:00,81.5,73.6,29.86,South,180,2.4,2.4,77,0.00,,---,0.33,VWS V13.01,2013-11-06 01:51:00,
2013-11-05 21:52:00,81.5,73.6,29.86,South,180,3.1,3.1,77,0.00,,---,0.33,VWS V13.01,2013-11-06 01:52:00,
2013-11-05 21:56:00,81.5,73.6,29.86,South,180,0.0,0.0,77,0.00,,---,0.33,VWS V13.01,2013-11-06 01:56:00,
2013-11-05 21:57:00,81.5,73.6,29.86,South,180,0.0,0.0,77,0.00,,---,0.33,VWS V13.01,2013-11-06 01:57:00,
2013-11-05 22:01:00,81.5,73.6,29.86,SE,135,0.0,0.0,77,0.00,,---,0.33,VWS V13.01,2013-11-06 02:01:00,
2013-11-05 22:02:00,81.5,73.6,29.86,SE,135,0.0,0.0,77,0.00,,---,0.33,VWS V13.01,2013-11-06 02:02:00,
2013-11-05 22:03:00,81.5,73.6,29.86,SE,135,0.0,0.0,77,0.00,,---,0.33,VWS V13.01,2013-11-06 02:03:00,
2013-11-05 22:06:00,81.3,73.4,29.86,South,180,0.8,0.8,77,0.00,,---,0.33,VWS V13.01,2013-11-06 02:06:00,
2013-11-05 22:07:00,81.3,73.4,29.86,South,180,0.8,0.8,77,0.00,,---,0.33,VWS V13.01,2013-11-06 02:07:00,
2013-11-05 22:08:00,81.3,73.4,29.86,South,180,1.5,1.5,77,0.00,,---,0.33,VWS V13.01,2013-11-06 02:08:00,
2013-11-05 22:11:00,81.3,73.4,29.86,SSW,202,0.0,0.0,77,0.00,,---,0.33,VWS V13.01,2013-11-06 02:11:00,
2013-11-05 22:12:00,81.3,73.4,29.86,SSW,202,0.0,0.0,77,0.00,,---,0.33,VWS V13.01,2013-11-06 02:12:00,
2013-11-05 22:13:00,81.3,73.4,29.86,SSW,202,0.0,0.0,77,0.00,,---,0.33,VWS V13.01,2013-11-06 02:13:00,
2013-11-05 22:16:00,81.3,73.4,29.86,South,180,0.0,0.0,77,0.00,,---,0.33,VWS V13.01,2013-11-06 02:16:00,
2013-11-05 22:17:00,81.3,73.4,29.86,South,180,0.0,0.0,77,0.00,,---,0.33,VWS V13.01,2013-11-06 02:17:00,
2013-11-05 22:18:00,81.3,73.4,29.86,SSW,202,1.1,1.1,77,0.00,,---,0.33,VWS V13.01,2013-11-06 02:18:00,
2013-11-05 22:21:00,81.3,73.4,29.86,SSW,202,0.0,0.0,77,0.00,,---,0.33,VWS V13.01,2013-11-06 02:21:00,
2013-11-05 22:22:00,81.3,73.4,29.86,SSW,202,0.0,0.0,77,0.00,,---,0.33,VWS V13.01,2013-11-06 02:22:00,
2013-11-05 22:23:00,81.3,73.4,29.86,SSW,202,0.0,0.0,77,0.00,,---,0.33,VWS V13.01,2013-11-06 02:23:00,
2013-11-05 22:26:00,81.3,73.4,29.86,South,180,1.7,1.7,77,0.00,,---,0.33,VWS V13.01,2013-11-06 02:26:00,
2013-11-05 22:27:00,81.3,73.4,29.86,South,180,1.7,1.7,77,0.00,,---,0.33,VWS V13.01,2013-11-06 02:27:00,
2013-11-05 22:28:00,81.3,73.4,29.86,SSE,158,0.0,0.0,77,0.00,,---,0.33,VWS V13.01,2013-11-06 02:28:00,
2013-11-05 22:31:00,81.3,73.4,29.86,SSE,158,0.0,0.0,77,0.00,,---,0.33,VWS V13.01,2013-11-06 02:31:00,
2013-11-05 22:32:00,81.3,73.4,29.86,South,180,0.0,0.0,77,0.00,,---,0.33,VWS V13.01,2013-11-06 02:32:00,
2013-11-05 22:33:00,81.3,73.4,29.86,South,180,0.0,0.0,77,0.00,,---,0.33,VWS V13.01,2013-11-06 02:33:00,
2013-11-05 22:36:00,81.3,73.8,29.86,South,180,0.0,0.0,78,0.00,,---,0.33,VWS V13.01,2013-11-06 02:36:00,
2013-11-05 22:37:00,81.3,73.8,29.86,South,180,0.0,0.0,78,0.00,,---,0.33,VWS V13.01,2013-11-06 02:37:00,
2013-11-05 22:38:00,81.3,73.8,29.86,SSW,202,0.0,0.0,78,0.00,,---,0.33,VWS V13.01,2013-11-06 02:38:00,
2013-11-05 22:41:00,81.3,73.8,29.86,WSW,248,0.0,0.0,78,0.00,,---,0.33,VWS V13.01,2013-11-06 02:41:00,
2013-11-05 22:42:00,81.3,73.8,29.86,WSW,248,0.0,0.0,78,0.00,,---,0.33,VWS V13.01,2013-11-06 02:42:00,
2013-11-05 22:43:00,81.3,73.8,29.85,WSW,248,0.0,0.0,78,0.00,,---,0.33,VWS V13.01,2013-11-06 02:43:00,
2013-11-05 22:46:00,81.1,73.6,29.86,SSW,202,1.3,1.3,78,0.00,,---,0.33,VWS V13.01,2013-11-06 02:46:00,
2013-11-05 22:47:00,81.1,73.6,29.86,SSW,202,1.3,1.3,78,0.00,,---,0.33,VWS V13.01,2013-11-06 02:47:00,
2013-11-05 22:48:00,81.1,73.6,29.86,SW,225,0.0,0.0,78,0.00,,---,0.33,VWS V13.01,2013-11-06 02:48:00,
2013-11-05 22:51:00,81.1,73.6,29.86,SSW,202,1.5,1.5,78,0.00,,---,0.33,VWS V13.01,2013-11-06 02:51:00,
2013-11-05 22:52:00,81.1,73.6,29.86,SSW,202,1.5,1.5,78,0.00,,---,0.33,VWS V13.01,2013-11-06 02:52:00,
2013-11-05 22:53:00,81.1,73.6,29.86,South,180,0.0,0.0,78,0.00,,---,0.33,VWS V13.01,2013-11-06 02:53:00,
2013-11-05 22:56:00,80.9,73.4,29.86,SSW,202,1.3,1.3,78,0.00,,---,0.33,VWS V13.01,2013-11-06 02:56:00,
2013-11-05 22:57:00,80.9,73.4,29.86,SSW,202,1.3,1.3,78,0.00,,---,0.33,VWS V13.01,2013-11-06 02:57:00,
2013-11-05 22:58:00,80.9,73.4,29.86,SW,225,0.0,0.0,78,0.00,,---,0.33,VWS V13.01,2013-11-06 02:58:00,
2013-11-05 23:01:00,80.9,73.8,29.86,South,180,0.0,0.0,79,0.00,,---,0.33,VWS V13.01,2013-11-06 03:01:00,
2013-11-05 23:02:00,80.9,73.8,29.86,South,180,0.0,0.0,79,0.00,,---,0.33,VWS V13.01,2013-11-06 03:02:00,
2013-11-05 23:03:00,80.9,73.8,29.86,WSW,248,0.0,0.0,79,0.00,,---,0.33,VWS V13.01,2013-11-06 03:03:00,
2013-11-05 23:07:00,80.9,73.8,29.86,WSW,248,2.9,2.9,79,0.00,,---,0.33,VWS V13.01,2013-11-06 03:07:00,
2013-11-05 23:08:00,80.7,73.6,29.86,SW,225,0.0,0.0,79,0.00,,---,0.33,VWS V13.01,2013-11-06 03:08:00,
2013-11-05 23:09:00,80.7,73.6,29.86,SW,225,0.0,0.0,79,0.00,,---,0.33,VWS V13.01,2013-11-06 03:09:00,
2013-11-05 23:12:00,80.7,73.6,29.87,West,270,0.0,0.0,79,0.00,,---,0.33,VWS V13.01,2013-11-06 03:12:00,
2013-11-05 23:13:00,80.7,73.6,29.86,WSW,248,2.0,2.0,79,0.00,,---,0.33,VWS V13.01,2013-11-06 03:13:00,
2013-11-05 23:14:00,80.7,73.6,29.86,WSW,248,2.0,2.0,79,0.00,,---,0.33,VWS V13.01,2013-11-06 03:14:00,
2013-11-05 23:17:00,80.7,73.6,29.86,SW,225,0.0,0.0,79,0.00,,---,0.33,VWS V13.01,2013-11-06 03:17:00,
2013-11-05 23:18:00,80.7,73.6,29.87,SSW,202,0.0,0.0,79,0.00,,---,0.33,VWS V13.01,2013-11-06 03:18:00,
2013-11-05 23:19:00,80.7,73.6,29.86,West,270,0.0,0.0,79,0.00,,---,0.33,VWS V13.01,2013-11-06 03:19:00,
2013-11-05 23:22:00,80.6,73.5,29.86,South,180,0.0,0.0,79,0.00,,---,0.33,VWS V13.01,2013-11-06 03:22:00,
2013-11-05 23:23:00,80.6,73.5,29.86,SW,225,0.0,0.0,79,0.00,,---,0.33,VWS V13.01,2013-11-06 03:23:00,
2013-11-05 23:24:00,80.6,73.5,29.86,WSW,248,0.0,0.0,79,0.00,,---,0.33,VWS V13.01,2013-11-06 03:24:00,
2013-11-05 23:27:00,80.4,73.3,29.86,SW,225,0.0,0.0,79,0.00,,---,0.33,VWS V13.01,2013-11-06 03:27:00,
2013-11-05 23:28:00,80.6,73.5,29.86,WSW,248,0.6,0.6,79,0.00,,---,0.33,VWS V13.01,2013-11-06 03:28:00,
2013-11-05 23:29:00,80.4,73.3,29.86,SSW,202,0.0,0.0,79,0.00,,---,0.33,VWS V13.01,2013-11-06 03:29:00,
2013-11-05 23:32:00,80.4,73.3,29.86,SSW,202,0.0,0.0,79,0.00,,---,0.33,VWS V13.01,2013-11-06 03:32:00,
2013-11-05 23:33:00,80.4,73.3,29.86,SSW,202,0.0,0.0,79,0.00,,---,0.33,VWS V13.01,2013-11-06 03:33:00,
2013-11-05 23:34:00,80.4,73.3,29.86,SW,225,0.0,0.0,79,0.00,,---,0.33,VWS V13.01,2013-11-06 03:34:00,
2013-11-05 23:37:00,80.4,73.3,29.86,South,180,1.5,1.5,79,0.00,,---,0.33,VWS V13.01,2013-11-06 03:37:00,
2013-11-05 23:38:00,80.4,73.3,29.86,South,180,0.0,0.0,79,0.00,,---,0.33,VWS V13.01,2013-11-06 03:38:00,
2013-11-05 23:39:00,80.4,73.3,29.86,WSW,248,0.0,0.0,79,0.00,,---,0.33,VWS V13.01,2013-11-06 03:39:00,
2013-11-05 23:42:00,80.4,73.3,29.86,South,180,0.0,0.0,79,0.00,,---,0.33,VWS V13.01,2013-11-06 03:42:00,
2013-11-05 23:43:00,80.4,72.9,29.86,SSW,202,0.0,0.0,78,0.00,,---,0.33,VWS V13.01,2013-11-06 03:43:00,
2013-11-05 23:44:00,80.4,72.9,29.86,West,270,0.0,0.0,78,0.00,,---,0.33,VWS V13.01,2013-11-06 03:44:00,
2013-11-05 23:47:00,80.4,72.9,29.86,West,270,0.0,0.0,78,0.00,,---,0.33,VWS V13.01,2013-11-06 03:47:00,
2013-11-05 23:48:00,80.4,72.9,29.86,WSW,248,0.0,0.0,78,0.00,,---,0.33,VWS V13.01,2013-11-06 03:48:00,
2013-11-05 23:49:00,80.4,72.9,29.86,West,270,0.6,0.6,78,0.00,,---,0.33,VWS V13.01,2013-11-06 03:49:00,
2013-11-05 23:52:00,80.4,72.9,29.86,WSW,248,0.0,0.0,78,0.00,,---,0.33,VWS V13.01,2013-11-06 03:52:00,
2013-11-05 23:53:00,80.4,72.9,29.86,WSW,248,1.3,1.3,78,0.00,,---,0.33,VWS V13.01,2013-11-06 03:53:00,
2013-11-05 23:54:00,80.4,72.9,29.86,WSW,248,2.0,2.0,78,0.00,,---,0.33,VWS V13.01,2013-11-06 03:54:00,
2013-11-05 23:57:00,80.4,72.9,29.86,South,180,0.0,0.0,78,0.00,,---,0.00,VWS V13.01,2013-11-06 03:57:00,
2013-11-05 23:58:00,80.4,72.9,29.86,South,180,0.0,0.0,78,0.00,,---,0.00,VWS V13.01,2013-11-06 03:58:00,
2013-11-05 23:59:00,80.4,72.9,29.86,South,180,1.5,1.5,78,0.00,,---,0.00,VWS V13.01,2013-11-06 03:59:00,